<?xml version="1.0" encoding="UTF-8" standalone="no" ?>
<gpx xmlns="http://www.topografix.com/GPX/1/1" xmlns:xsi="http://www.w3.org/2001/XMLSchema-instance" xsi:schemaLocation="http://www.topografix.com/GPX/1/1 http://www.topografix.com/GPX/1/1/gpx.xsd" version="1.1" creator="VisuGPX - https://www.visugpx.com">
  <metadata>
    <name>Etang Bleu pic des 3 Seigneurs</name>
    <desc><![CDATA[DEpart du parking pont de ressec ( Rabat les 3 seigneurs ) - Cirque d\'Embans - etang bleu - col de la Couillate - crete pic de piroutet - 3seigneurs - retour par le lac bleu etboucle par la jasse de l\'etang bleu ]]></desc>
  </metadata>
  <trk>
    <name><![CDATA[ACTIVE LOG081859]]></name>
    <trkseg>
      <trkpt lat="42.84039" lon="1.48488">
        <ele>944.469</ele>
        <time>2012-07-19T06:18:57Z</time>
      </trkpt>
      <trkpt lat="42.84024" lon="1.4845">
        <ele>948.114</ele>
        <time>2012-07-19T06:20:02Z</time>
      </trkpt>
      <trkpt lat="42.84012" lon="1.48422">
        <ele>950.723</ele>
        <time>2012-07-19T06:20:30Z</time>
      </trkpt>
      <trkpt lat="42.84009" lon="1.48409">
        <ele>953.674</ele>
        <time>2012-07-19T06:20:53Z</time>
      </trkpt>
      <trkpt lat="42.84003" lon="1.48388">
        <ele>954.94</ele>
        <time>2012-07-19T06:21:11Z</time>
      </trkpt>
      <trkpt lat="42.84003" lon="1.48364">
        <ele>956.672</ele>
        <time>2012-07-19T06:21:28Z</time>
      </trkpt>
      <trkpt lat="42.84002" lon="1.48341">
        <ele>958.756</ele>
        <time>2012-07-19T06:21:55Z</time>
      </trkpt>
      <trkpt lat="42.83995" lon="1.48319">
        <ele>960.137</ele>
        <time>2012-07-19T06:22:13Z</time>
      </trkpt>
      <trkpt lat="42.83985" lon="1.48296">
        <ele>961.798</ele>
        <time>2012-07-19T06:22:31Z</time>
      </trkpt>
      <trkpt lat="42.83981" lon="1.48273">
        <ele>962.874</ele>
        <time>2012-07-19T06:22:48Z</time>
      </trkpt>
      <trkpt lat="42.83978" lon="1.48248">
        <ele>964.023</ele>
        <time>2012-07-19T06:23:05Z</time>
      </trkpt>
      <trkpt lat="42.83977" lon="1.48223">
        <ele>965.056</ele>
        <time>2012-07-19T06:23:25Z</time>
      </trkpt>
      <trkpt lat="42.83974" lon="1.48199">
        <ele>966.107</ele>
        <time>2012-07-19T06:23:42Z</time>
      </trkpt>
      <trkpt lat="42.83972" lon="1.48174">
        <ele>967.425</ele>
        <time>2012-07-19T06:24:00Z</time>
      </trkpt>
      <trkpt lat="42.83969" lon="1.48149">
        <ele>968.749</ele>
        <time>2012-07-19T06:24:16Z</time>
      </trkpt>
      <trkpt lat="42.83963" lon="1.48121">
        <ele>970.912</ele>
        <time>2012-07-19T06:24:37Z</time>
      </trkpt>
      <trkpt lat="42.83961" lon="1.48094">
        <ele>973.62</ele>
        <time>2012-07-19T06:25:04Z</time>
      </trkpt>
      <trkpt lat="42.83956" lon="1.48064">
        <ele>974.175</ele>
        <time>2012-07-19T06:25:25Z</time>
      </trkpt>
      <trkpt lat="42.83952" lon="1.48034">
        <ele>974.893</ele>
        <time>2012-07-19T06:25:45Z</time>
      </trkpt>
      <trkpt lat="42.83955" lon="1.48004">
        <ele>976.616</ele>
        <time>2012-07-19T06:26:07Z</time>
      </trkpt>
      <trkpt lat="42.83951" lon="1.47966">
        <ele>977.509</ele>
        <time>2012-07-19T06:26:33Z</time>
      </trkpt>
      <trkpt lat="42.83945" lon="1.47934">
        <ele>981.264</ele>
        <time>2012-07-19T06:26:55Z</time>
      </trkpt>
      <trkpt lat="42.83942" lon="1.47906">
        <ele>983.531</ele>
        <time>2012-07-19T06:27:18Z</time>
      </trkpt>
      <trkpt lat="42.8393" lon="1.47886">
        <ele>986.094</ele>
        <time>2012-07-19T06:27:38Z</time>
      </trkpt>
      <trkpt lat="42.83925" lon="1.47858">
        <ele>988.316</ele>
        <time>2012-07-19T06:27:57Z</time>
      </trkpt>
      <trkpt lat="42.8392" lon="1.4784">
        <ele>990.586</ele>
        <time>2012-07-19T06:28:13Z</time>
      </trkpt>
      <trkpt lat="42.83905" lon="1.47829">
        <ele>992.203</ele>
        <time>2012-07-19T06:28:28Z</time>
      </trkpt>
      <trkpt lat="42.83899" lon="1.47807">
        <ele>992.719</ele>
        <time>2012-07-19T06:28:44Z</time>
      </trkpt>
      <trkpt lat="42.83893" lon="1.47787">
        <ele>995.009</ele>
        <time>2012-07-19T06:29:00Z</time>
      </trkpt>
      <trkpt lat="42.83894" lon="1.4776">
        <ele>995.313</ele>
        <time>2012-07-19T06:29:17Z</time>
      </trkpt>
      <trkpt lat="42.83895" lon="1.47734">
        <ele>996.38</ele>
        <time>2012-07-19T06:29:33Z</time>
      </trkpt>
      <trkpt lat="42.83895" lon="1.47716">
        <ele>995.556</ele>
        <time>2012-07-19T06:29:57Z</time>
      </trkpt>
      <trkpt lat="42.83902" lon="1.47695">
        <ele>995.95</ele>
        <time>2012-07-19T06:30:13Z</time>
      </trkpt>
      <trkpt lat="42.83902" lon="1.47659">
        <ele>995.17</ele>
        <time>2012-07-19T06:30:41Z</time>
      </trkpt>
      <trkpt lat="42.83897" lon="1.47624">
        <ele>994.813</ele>
        <time>2012-07-19T06:31:00Z</time>
      </trkpt>
      <trkpt lat="42.83882" lon="1.47584">
        <ele>995.841</ele>
        <time>2012-07-19T06:31:24Z</time>
      </trkpt>
      <trkpt lat="42.83881" lon="1.47533">
        <ele>1000.029</ele>
        <time>2012-07-19T06:31:56Z</time>
      </trkpt>
      <trkpt lat="42.83865" lon="1.47491">
        <ele>1006.075</ele>
        <time>2012-07-19T06:32:45Z</time>
      </trkpt>
      <trkpt lat="42.83868" lon="1.4746">
        <ele>1009.23</ele>
        <time>2012-07-19T06:33:11Z</time>
      </trkpt>
      <trkpt lat="42.83869" lon="1.47431">
        <ele>1013.616</ele>
        <time>2012-07-19T06:33:39Z</time>
      </trkpt>
      <trkpt lat="42.8387" lon="1.47406">
        <ele>1019.233</ele>
        <time>2012-07-19T06:34:09Z</time>
      </trkpt>
      <trkpt lat="42.8386" lon="1.47384">
        <ele>1023.563</ele>
        <time>2012-07-19T06:34:30Z</time>
      </trkpt>
      <trkpt lat="42.83847" lon="1.47349">
        <ele>1027.227</ele>
        <time>2012-07-19T06:35:01Z</time>
      </trkpt>
      <trkpt lat="42.83839" lon="1.47325">
        <ele>1029.81</ele>
        <time>2012-07-19T06:35:19Z</time>
      </trkpt>
      <trkpt lat="42.83842" lon="1.47301">
        <ele>1032.295</ele>
        <time>2012-07-19T06:35:38Z</time>
      </trkpt>
      <trkpt lat="42.83852" lon="1.47281">
        <ele>1034.071</ele>
        <time>2012-07-19T06:35:56Z</time>
      </trkpt>
      <trkpt lat="42.83861" lon="1.47258">
        <ele>1035.02</ele>
        <time>2012-07-19T06:36:15Z</time>
      </trkpt>
      <trkpt lat="42.83862" lon="1.47233">
        <ele>1036.162</ele>
        <time>2012-07-19T06:36:33Z</time>
      </trkpt>
      <trkpt lat="42.83864" lon="1.47205">
        <ele>1038.95</ele>
        <time>2012-07-19T06:36:54Z</time>
      </trkpt>
      <trkpt lat="42.83869" lon="1.47179">
        <ele>1040.752</ele>
        <time>2012-07-19T06:37:13Z</time>
      </trkpt>
      <trkpt lat="42.83872" lon="1.47154">
        <ele>1043.492</ele>
        <time>2012-07-19T06:37:34Z</time>
      </trkpt>
      <trkpt lat="42.83865" lon="1.4713">
        <ele>1044.652</ele>
        <time>2012-07-19T06:37:54Z</time>
      </trkpt>
      <trkpt lat="42.83862" lon="1.47101">
        <ele>1047.632</ele>
        <time>2012-07-19T06:38:16Z</time>
      </trkpt>
      <trkpt lat="42.83862" lon="1.47075">
        <ele>1051.554</ele>
        <time>2012-07-19T06:38:40Z</time>
      </trkpt>
      <trkpt lat="42.8387" lon="1.47052">
        <ele>1055.356</ele>
        <time>2012-07-19T06:39:02Z</time>
      </trkpt>
      <trkpt lat="42.83883" lon="1.47032">
        <ele>1058.55</ele>
        <time>2012-07-19T06:39:24Z</time>
      </trkpt>
      <trkpt lat="42.83886" lon="1.47008">
        <ele>1060.831</ele>
        <time>2012-07-19T06:39:46Z</time>
      </trkpt>
      <trkpt lat="42.83882" lon="1.4698">
        <ele>1064.128</ele>
        <time>2012-07-19T06:40:09Z</time>
      </trkpt>
      <trkpt lat="42.83879" lon="1.46949">
        <ele>1068.972</ele>
        <time>2012-07-19T06:40:37Z</time>
      </trkpt>
      <trkpt lat="42.83875" lon="1.46922">
        <ele>1070.953</ele>
        <time>2012-07-19T06:40:57Z</time>
      </trkpt>
      <trkpt lat="42.83872" lon="1.46895">
        <ele>1071.891</ele>
        <time>2012-07-19T06:41:17Z</time>
      </trkpt>
      <trkpt lat="42.83876" lon="1.4687">
        <ele>1073.601</ele>
        <time>2012-07-19T06:41:36Z</time>
      </trkpt>
      <trkpt lat="42.83876" lon="1.46844">
        <ele>1076.148</ele>
        <time>2012-07-19T06:41:57Z</time>
      </trkpt>
      <trkpt lat="42.83879" lon="1.46819">
        <ele>1079.308</ele>
        <time>2012-07-19T06:42:20Z</time>
      </trkpt>
      <trkpt lat="42.83884" lon="1.46792">
        <ele>1081.668</ele>
        <time>2012-07-19T06:42:41Z</time>
      </trkpt>
      <trkpt lat="42.83889" lon="1.46766">
        <ele>1084.538</ele>
        <time>2012-07-19T06:43:02Z</time>
      </trkpt>
      <trkpt lat="42.83895" lon="1.46744">
        <ele>1087.399</ele>
        <time>2012-07-19T06:43:22Z</time>
      </trkpt>
      <trkpt lat="42.83901" lon="1.46719">
        <ele>1089.474</ele>
        <time>2012-07-19T06:43:42Z</time>
      </trkpt>
      <trkpt lat="42.83905" lon="1.46693">
        <ele>1091.365</ele>
        <time>2012-07-19T06:44:02Z</time>
      </trkpt>
      <trkpt lat="42.83908" lon="1.46667">
        <ele>1093.344</ele>
        <time>2012-07-19T06:44:20Z</time>
      </trkpt>
      <trkpt lat="42.83911" lon="1.46641">
        <ele>1095.649</ele>
        <time>2012-07-19T06:44:39Z</time>
      </trkpt>
      <trkpt lat="42.83914" lon="1.46616">
        <ele>1098.103</ele>
        <time>2012-07-19T06:44:58Z</time>
      </trkpt>
      <trkpt lat="42.83913" lon="1.4659">
        <ele>1100.325</ele>
        <time>2012-07-19T06:45:18Z</time>
      </trkpt>
      <trkpt lat="42.839" lon="1.46571">
        <ele>1102.091</ele>
        <time>2012-07-19T06:45:37Z</time>
      </trkpt>
      <trkpt lat="42.83896" lon="1.46544">
        <ele>1104.244</ele>
        <time>2012-07-19T06:45:56Z</time>
      </trkpt>
      <trkpt lat="42.83896" lon="1.4653">
        <ele>1167.064</ele>
        <time>2012-07-19T06:47:29Z</time>
      </trkpt>
      <trkpt lat="42.8389" lon="1.465">
        <ele>1168.671</ele>
        <time>2012-07-19T06:47:57Z</time>
      </trkpt>
      <trkpt lat="42.83883" lon="1.4647">
        <ele>1169.396</ele>
        <time>2012-07-19T06:48:20Z</time>
      </trkpt>
      <trkpt lat="42.83896" lon="1.46428">
        <ele>1171.106</ele>
        <time>2012-07-19T06:48:52Z</time>
      </trkpt>
      <trkpt lat="42.83888" lon="1.46406">
        <ele>1171.418</ele>
        <time>2012-07-19T06:49:04Z</time>
      </trkpt>
      <trkpt lat="42.83888" lon="1.46384">
        <ele>1172.624</ele>
        <time>2012-07-19T06:49:24Z</time>
      </trkpt>
      <trkpt lat="42.83896" lon="1.46358">
        <ele>1173.299</ele>
        <time>2012-07-19T06:49:50Z</time>
      </trkpt>
      <trkpt lat="42.83889" lon="1.46319">
        <ele>1173.375</ele>
        <time>2012-07-19T06:50:39Z</time>
      </trkpt>
      <trkpt lat="42.83876" lon="1.46323">
        <ele>1172.099</ele>
        <time>2012-07-19T06:50:57Z</time>
      </trkpt>
      <trkpt lat="42.83861" lon="1.46332">
        <ele>1171.764</ele>
        <time>2012-07-19T06:51:15Z</time>
      </trkpt>
      <trkpt lat="42.83841" lon="1.46302">
        <ele>1173.502</ele>
        <time>2012-07-19T06:51:50Z</time>
      </trkpt>
      <trkpt lat="42.83841" lon="1.46276">
        <ele>1175.275</ele>
        <time>2012-07-19T06:52:10Z</time>
      </trkpt>
      <trkpt lat="42.8384" lon="1.46237">
        <ele>1176.574</ele>
        <time>2012-07-19T06:52:33Z</time>
      </trkpt>
      <trkpt lat="42.83834" lon="1.46211">
        <ele>1178.63</ele>
        <time>2012-07-19T06:52:52Z</time>
      </trkpt>
      <trkpt lat="42.83839" lon="1.46186">
        <ele>1179.473</ele>
        <time>2012-07-19T06:53:09Z</time>
      </trkpt>
      <trkpt lat="42.83834" lon="1.46156">
        <ele>1179.333</ele>
        <time>2012-07-19T06:53:27Z</time>
      </trkpt>
      <trkpt lat="42.83831" lon="1.46128">
        <ele>1180.501</ele>
        <time>2012-07-19T06:53:44Z</time>
      </trkpt>
      <trkpt lat="42.83824" lon="1.46114">
        <ele>1181.743</ele>
        <time>2012-07-19T06:54:04Z</time>
      </trkpt>
      <trkpt lat="42.83821" lon="1.46087">
        <ele>1182.633</ele>
        <time>2012-07-19T06:54:26Z</time>
      </trkpt>
      <trkpt lat="42.83819" lon="1.46059">
        <ele>1183.696</ele>
        <time>2012-07-19T06:54:46Z</time>
      </trkpt>
      <trkpt lat="42.83817" lon="1.46026">
        <ele>1184.891</ele>
        <time>2012-07-19T06:55:07Z</time>
      </trkpt>
      <trkpt lat="42.83812" lon="1.45983">
        <ele>1187.829</ele>
        <time>2012-07-19T06:55:29Z</time>
      </trkpt>
      <trkpt lat="42.83805" lon="1.45981">
        <ele>1192.213</ele>
        <time>2012-07-19T06:55:55Z</time>
      </trkpt>
      <trkpt lat="42.83785" lon="1.45949">
        <ele>1199.389</ele>
        <time>2012-07-19T06:56:38Z</time>
      </trkpt>
      <trkpt lat="42.83778" lon="1.45923">
        <ele>1203.129</ele>
        <time>2012-07-19T06:57:01Z</time>
      </trkpt>
      <trkpt lat="42.83777" lon="1.45913">
        <ele>1207.791</ele>
        <time>2012-07-19T06:57:27Z</time>
      </trkpt>
      <trkpt lat="42.83755" lon="1.45898">
        <ele>1218.727</ele>
        <time>2012-07-19T06:58:31Z</time>
      </trkpt>
      <trkpt lat="42.83726" lon="1.45918">
        <ele>1228.019</ele>
        <time>2012-07-19T06:59:19Z</time>
      </trkpt>
      <trkpt lat="42.83708" lon="1.45927">
        <ele>1239.308</ele>
        <time>2012-07-19T07:00:17Z</time>
      </trkpt>
      <trkpt lat="42.83696" lon="1.45919">
        <ele>1247.933</ele>
        <time>2012-07-19T07:01:04Z</time>
      </trkpt>
      <trkpt lat="42.83686" lon="1.45894">
        <ele>1255.823</ele>
        <time>2012-07-19T07:01:50Z</time>
      </trkpt>
      <trkpt lat="42.83656" lon="1.45878">
        <ele>1273.171</ele>
        <time>2012-07-19T07:03:33Z</time>
      </trkpt>
      <trkpt lat="42.83643" lon="1.45896">
        <ele>1277.307</ele>
        <time>2012-07-19T07:08:26Z</time>
      </trkpt>
      <trkpt lat="42.83628" lon="1.4587">
        <ele>1288.485</ele>
        <time>2012-07-19T07:09:28Z</time>
      </trkpt>
      <trkpt lat="42.83615" lon="1.45867">
        <ele>1297.636</ele>
        <time>2012-07-19T07:10:22Z</time>
      </trkpt>
      <trkpt lat="42.83601" lon="1.45864">
        <ele>1304.297</ele>
        <time>2012-07-19T07:10:53Z</time>
      </trkpt>
      <trkpt lat="42.83595" lon="1.45848">
        <ele>1308.858</ele>
        <time>2012-07-19T07:11:23Z</time>
      </trkpt>
      <trkpt lat="42.83585" lon="1.45834">
        <ele>1313.317</ele>
        <time>2012-07-19T07:11:49Z</time>
      </trkpt>
      <trkpt lat="42.83585" lon="1.45802">
        <ele>1317.845</ele>
        <time>2012-07-19T07:12:22Z</time>
      </trkpt>
      <trkpt lat="42.83569" lon="1.4578">
        <ele>1323.736</ele>
        <time>2012-07-19T07:12:59Z</time>
      </trkpt>
      <trkpt lat="42.83553" lon="1.45756">
        <ele>1329.122</ele>
        <time>2012-07-19T07:13:30Z</time>
      </trkpt>
      <trkpt lat="42.83551" lon="1.4574">
        <ele>1331.94</ele>
        <time>2012-07-19T07:13:54Z</time>
      </trkpt>
      <trkpt lat="42.83542" lon="1.45715">
        <ele>1335.266</ele>
        <time>2012-07-19T07:14:17Z</time>
      </trkpt>
      <trkpt lat="42.83547" lon="1.45677">
        <ele>1338.915</ele>
        <time>2012-07-19T07:14:57Z</time>
      </trkpt>
      <trkpt lat="42.83534" lon="1.45656">
        <ele>1345.429</ele>
        <time>2012-07-19T07:15:46Z</time>
      </trkpt>
      <trkpt lat="42.83519" lon="1.45643">
        <ele>1348.204</ele>
        <time>2012-07-19T07:16:08Z</time>
      </trkpt>
      <trkpt lat="42.83501" lon="1.45633">
        <ele>1350.619</ele>
        <time>2012-07-19T07:16:35Z</time>
      </trkpt>
      <trkpt lat="42.83474" lon="1.45631">
        <ele>1353.512</ele>
        <time>2012-07-19T07:17:04Z</time>
      </trkpt>
      <trkpt lat="42.83444" lon="1.45627">
        <ele>1359.982</ele>
        <time>2012-07-19T07:17:44Z</time>
      </trkpt>
      <trkpt lat="42.83421" lon="1.45624">
        <ele>1366.898</ele>
        <time>2012-07-19T07:18:27Z</time>
      </trkpt>
      <trkpt lat="42.83407" lon="1.45636">
        <ele>1375.071</ele>
        <time>2012-07-19T07:19:12Z</time>
      </trkpt>
      <trkpt lat="42.83388" lon="1.45634">
        <ele>1382.474</ele>
        <time>2012-07-19T07:19:54Z</time>
      </trkpt>
      <trkpt lat="42.83371" lon="1.45623">
        <ele>1388.91</ele>
        <time>2012-07-19T07:20:27Z</time>
      </trkpt>
      <trkpt lat="42.83357" lon="1.4561">
        <ele>1390.307</ele>
        <time>2012-07-19T07:20:45Z</time>
      </trkpt>
      <trkpt lat="42.83343" lon="1.45595">
        <ele>1391.864</ele>
        <time>2012-07-19T07:21:09Z</time>
      </trkpt>
      <trkpt lat="42.83327" lon="1.45575">
        <ele>1393.649</ele>
        <time>2012-07-19T07:21:38Z</time>
      </trkpt>
      <trkpt lat="42.83301" lon="1.45551">
        <ele>1398.051</ele>
        <time>2012-07-19T07:22:16Z</time>
      </trkpt>
      <trkpt lat="42.83303" lon="1.45553">
        <ele>1397.167</ele>
        <time>2012-07-19T07:23:34Z</time>
      </trkpt>
      <trkpt lat="42.83282" lon="1.45545">
        <ele>1401.979</ele>
        <time>2012-07-19T07:24:09Z</time>
      </trkpt>
      <trkpt lat="42.83266" lon="1.4553">
        <ele>1404.441</ele>
        <time>2012-07-19T07:24:36Z</time>
      </trkpt>
      <trkpt lat="42.83262" lon="1.45502">
        <ele>1408.252</ele>
        <time>2012-07-19T07:25:15Z</time>
      </trkpt>
      <trkpt lat="42.83243" lon="1.45483">
        <ele>1413.575</ele>
        <time>2012-07-19T07:25:47Z</time>
      </trkpt>
      <trkpt lat="42.83255" lon="1.45471">
        <ele>1417.675</ele>
        <time>2012-07-19T07:26:18Z</time>
      </trkpt>
      <trkpt lat="42.83253" lon="1.4545">
        <ele>1425.828</ele>
        <time>2012-07-19T07:26:59Z</time>
      </trkpt>
      <trkpt lat="42.83259" lon="1.45429">
        <ele>1431.84</ele>
        <time>2012-07-19T07:27:29Z</time>
      </trkpt>
      <trkpt lat="42.83268" lon="1.45409">
        <ele>1435.844</ele>
        <time>2012-07-19T07:27:58Z</time>
      </trkpt>
      <trkpt lat="42.83276" lon="1.45386">
        <ele>1440.072</ele>
        <time>2012-07-19T07:28:25Z</time>
      </trkpt>
      <trkpt lat="42.83284" lon="1.45364">
        <ele>1444.105</ele>
        <time>2012-07-19T07:29:03Z</time>
      </trkpt>
      <trkpt lat="42.83286" lon="1.45347">
        <ele>1447.311</ele>
        <time>2012-07-19T07:29:45Z</time>
      </trkpt>
      <trkpt lat="42.83265" lon="1.4532">
        <ele>1451.048</ele>
        <time>2012-07-19T07:30:41Z</time>
      </trkpt>
      <trkpt lat="42.83249" lon="1.45306">
        <ele>1454.849</ele>
        <time>2012-07-19T07:31:33Z</time>
      </trkpt>
      <trkpt lat="42.83229" lon="1.45303">
        <ele>1458.415</ele>
        <time>2012-07-19T07:31:58Z</time>
      </trkpt>
      <trkpt lat="42.8321" lon="1.45302">
        <ele>1462.623</ele>
        <time>2012-07-19T07:32:48Z</time>
      </trkpt>
      <trkpt lat="42.83191" lon="1.45301">
        <ele>1468.411</ele>
        <time>2012-07-19T07:33:21Z</time>
      </trkpt>
      <trkpt lat="42.83172" lon="1.45303">
        <ele>1472.596</ele>
        <time>2012-07-19T07:33:49Z</time>
      </trkpt>
      <trkpt lat="42.83151" lon="1.45291">
        <ele>1477.459</ele>
        <time>2012-07-19T07:34:25Z</time>
      </trkpt>
      <trkpt lat="42.83133" lon="1.45288">
        <ele>1482.478</ele>
        <time>2012-07-19T07:35:00Z</time>
      </trkpt>
      <trkpt lat="42.8311" lon="1.45275">
        <ele>1489.568</ele>
        <time>2012-07-19T07:35:37Z</time>
      </trkpt>
      <trkpt lat="42.83089" lon="1.45276">
        <ele>1494.991</ele>
        <time>2012-07-19T07:36:10Z</time>
      </trkpt>
      <trkpt lat="42.83066" lon="1.45274">
        <ele>1501.323</ele>
        <time>2012-07-19T07:36:45Z</time>
      </trkpt>
      <trkpt lat="42.83034" lon="1.45253">
        <ele>1511.966</ele>
        <time>2012-07-19T07:38:13Z</time>
      </trkpt>
      <trkpt lat="42.83021" lon="1.45257">
        <ele>1512.985</ele>
        <time>2012-07-19T07:41:36Z</time>
      </trkpt>
      <trkpt lat="42.82999" lon="1.45245">
        <ele>1515.942</ele>
        <time>2012-07-19T07:41:50Z</time>
      </trkpt>
      <trkpt lat="42.82992" lon="1.45239">
        <ele>1517.961</ele>
        <time>2012-07-19T07:42:06Z</time>
      </trkpt>
      <trkpt lat="42.82973" lon="1.45222">
        <ele>1530.338</ele>
        <time>2012-07-19T07:43:04Z</time>
      </trkpt>
      <trkpt lat="42.82962" lon="1.45227">
        <ele>1536.568</ele>
        <time>2012-07-19T07:43:37Z</time>
      </trkpt>
      <trkpt lat="42.82944" lon="1.45223">
        <ele>1546.53</ele>
        <time>2012-07-19T07:44:29Z</time>
      </trkpt>
      <trkpt lat="42.82936" lon="1.45235">
        <ele>1555.424</ele>
        <time>2012-07-19T07:45:17Z</time>
      </trkpt>
      <trkpt lat="42.82953" lon="1.45238">
        <ele>1557.672</ele>
        <time>2012-07-19T07:46:05Z</time>
      </trkpt>
      <trkpt lat="42.82952" lon="1.45252">
        <ele>1561.522</ele>
        <time>2012-07-19T07:46:28Z</time>
      </trkpt>
      <trkpt lat="42.82939" lon="1.45262">
        <ele>1568.202</ele>
        <time>2012-07-19T07:47:05Z</time>
      </trkpt>
      <trkpt lat="42.82917" lon="1.45274">
        <ele>1572.705</ele>
        <time>2012-07-19T07:47:41Z</time>
      </trkpt>
      <trkpt lat="42.82903" lon="1.45288">
        <ele>1575.714</ele>
        <time>2012-07-19T07:47:55Z</time>
      </trkpt>
      <trkpt lat="42.829" lon="1.45304">
        <ele>1586.957</ele>
        <time>2012-07-19T07:48:46Z</time>
      </trkpt>
      <trkpt lat="42.82888" lon="1.45314">
        <ele>1593.92</ele>
        <time>2012-07-19T07:49:43Z</time>
      </trkpt>
      <trkpt lat="42.82876" lon="1.45331">
        <ele>1601.678</ele>
        <time>2012-07-19T07:50:17Z</time>
      </trkpt>
      <trkpt lat="42.82854" lon="1.45344">
        <ele>1606.701</ele>
        <time>2012-07-19T07:50:43Z</time>
      </trkpt>
      <trkpt lat="42.82836" lon="1.45337">
        <ele>1606.415</ele>
        <time>2012-07-19T07:52:55Z</time>
      </trkpt>
      <trkpt lat="42.82832" lon="1.45333">
        <ele>1607.153</ele>
        <time>2012-07-19T07:56:34Z</time>
      </trkpt>
      <trkpt lat="42.82909" lon="1.45358">
        <ele>1607.375</ele>
        <time>2012-07-19T07:58:46Z</time>
      </trkpt>
      <trkpt lat="42.82883" lon="1.45365">
        <ele>1608.355</ele>
        <time>2012-07-19T07:59:11Z</time>
      </trkpt>
      <trkpt lat="42.82896" lon="1.45399">
        <ele>1613.917</ele>
        <time>2012-07-19T07:59:50Z</time>
      </trkpt>
      <trkpt lat="42.82913" lon="1.45417">
        <ele>1619.114</ele>
        <time>2012-07-19T08:00:19Z</time>
      </trkpt>
      <trkpt lat="42.82909" lon="1.45421">
        <ele>1623.993</ele>
        <time>2012-07-19T08:00:47Z</time>
      </trkpt>
      <trkpt lat="42.82904" lon="1.45429">
        <ele>1631.745</ele>
        <time>2012-07-19T08:01:28Z</time>
      </trkpt>
      <trkpt lat="42.82903" lon="1.45448">
        <ele>1640.06</ele>
        <time>2012-07-19T08:02:18Z</time>
      </trkpt>
      <trkpt lat="42.82917" lon="1.45459">
        <ele>1644.389</ele>
        <time>2012-07-19T08:02:45Z</time>
      </trkpt>
      <trkpt lat="42.82922" lon="1.45485">
        <ele>1649.835</ele>
        <time>2012-07-19T08:03:15Z</time>
      </trkpt>
      <trkpt lat="42.8294" lon="1.45504">
        <ele>1654.564</ele>
        <time>2012-07-19T08:03:44Z</time>
      </trkpt>
      <trkpt lat="42.8295" lon="1.45521">
        <ele>1659.384</ele>
        <time>2012-07-19T08:04:11Z</time>
      </trkpt>
      <trkpt lat="42.82939" lon="1.45538">
        <ele>1669.002</ele>
        <time>2012-07-19T08:05:34Z</time>
      </trkpt>
      <trkpt lat="42.82918" lon="1.45541">
        <ele>1671.355</ele>
        <time>2012-07-19T08:05:56Z</time>
      </trkpt>
      <trkpt lat="42.82901" lon="1.45535">
        <ele>1673.449</ele>
        <time>2012-07-19T08:06:12Z</time>
      </trkpt>
      <trkpt lat="42.82887" lon="1.45531">
        <ele>1675.874</ele>
        <time>2012-07-19T08:06:29Z</time>
      </trkpt>
      <trkpt lat="42.82898" lon="1.45554">
        <ele>1681.019</ele>
        <time>2012-07-19T08:06:54Z</time>
      </trkpt>
      <trkpt lat="42.82892" lon="1.45566">
        <ele>1687.948</ele>
        <time>2012-07-19T08:07:42Z</time>
      </trkpt>
      <trkpt lat="42.82876" lon="1.45568">
        <ele>1694.661</ele>
        <time>2012-07-19T08:08:13Z</time>
      </trkpt>
      <trkpt lat="42.82863" lon="1.45581">
        <ele>1701.697</ele>
        <time>2012-07-19T08:08:50Z</time>
      </trkpt>
      <trkpt lat="42.82851" lon="1.45596">
        <ele>1708.25</ele>
        <time>2012-07-19T08:09:31Z</time>
      </trkpt>
      <trkpt lat="42.82841" lon="1.45607">
        <ele>1713.534</ele>
        <time>2012-07-19T08:10:02Z</time>
      </trkpt>
      <trkpt lat="42.82833" lon="1.45629">
        <ele>1717.586</ele>
        <time>2012-07-19T08:10:30Z</time>
      </trkpt>
      <trkpt lat="42.82822" lon="1.45639">
        <ele>1724.675</ele>
        <time>2012-07-19T08:13:09Z</time>
      </trkpt>
      <trkpt lat="42.82811" lon="1.45658">
        <ele>1728.524</ele>
        <time>2012-07-19T08:13:35Z</time>
      </trkpt>
      <trkpt lat="42.82798" lon="1.45674">
        <ele>1733.016</ele>
        <time>2012-07-19T08:14:00Z</time>
      </trkpt>
      <trkpt lat="42.82808" lon="1.45688">
        <ele>1739.576</ele>
        <time>2012-07-19T08:14:35Z</time>
      </trkpt>
      <trkpt lat="42.82808" lon="1.45716">
        <ele>1744.833</ele>
        <time>2012-07-19T08:15:03Z</time>
      </trkpt>
      <trkpt lat="42.82822" lon="1.45727">
        <ele>1751.234</ele>
        <time>2012-07-19T08:15:37Z</time>
      </trkpt>
      <trkpt lat="42.82841" lon="1.45735">
        <ele>1757.957</ele>
        <time>2012-07-19T08:16:08Z</time>
      </trkpt>
      <trkpt lat="42.82852" lon="1.45752">
        <ele>1761.595</ele>
        <time>2012-07-19T08:16:32Z</time>
      </trkpt>
      <trkpt lat="42.82835" lon="1.45757">
        <ele>1764.888</ele>
        <time>2012-07-19T08:16:55Z</time>
      </trkpt>
      <trkpt lat="42.82818" lon="1.45763">
        <ele>1768.019</ele>
        <time>2012-07-19T08:17:16Z</time>
      </trkpt>
      <trkpt lat="42.82833" lon="1.45775">
        <ele>1772.127</ele>
        <time>2012-07-19T08:17:40Z</time>
      </trkpt>
      <trkpt lat="42.82844" lon="1.45791">
        <ele>1774.717</ele>
        <time>2012-07-19T08:18:06Z</time>
      </trkpt>
      <trkpt lat="42.82851" lon="1.45813">
        <ele>1779.002</ele>
        <time>2012-07-19T08:18:31Z</time>
      </trkpt>
      <trkpt lat="42.82855" lon="1.45837">
        <ele>1783.381</ele>
        <time>2012-07-19T08:18:52Z</time>
      </trkpt>
      <trkpt lat="42.82862" lon="1.4586">
        <ele>1787.63</ele>
        <time>2012-07-19T08:19:14Z</time>
      </trkpt>
      <trkpt lat="42.82848" lon="1.45879">
        <ele>1790.851</ele>
        <time>2012-07-19T08:19:37Z</time>
      </trkpt>
      <trkpt lat="42.82832" lon="1.45869">
        <ele>1794.661</ele>
        <time>2012-07-19T08:19:59Z</time>
      </trkpt>
      <trkpt lat="42.82815" lon="1.4586">
        <ele>1796.65</ele>
        <time>2012-07-19T08:20:18Z</time>
      </trkpt>
      <trkpt lat="42.82797" lon="1.45856">
        <ele>1798.666</ele>
        <time>2012-07-19T08:20:37Z</time>
      </trkpt>
      <trkpt lat="42.82779" lon="1.45858">
        <ele>1803.069</ele>
        <time>2012-07-19T08:21:10Z</time>
      </trkpt>
      <trkpt lat="42.82769" lon="1.45854">
        <ele>1807.33</ele>
        <time>2012-07-19T08:29:33Z</time>
      </trkpt>
      <trkpt lat="42.82751" lon="1.45843">
        <ele>1808.309</ele>
        <time>2012-07-19T08:29:49Z</time>
      </trkpt>
      <trkpt lat="42.82732" lon="1.45842">
        <ele>1806.404</ele>
        <time>2012-07-19T08:30:06Z</time>
      </trkpt>
      <trkpt lat="42.82714" lon="1.45841">
        <ele>1800.383</ele>
        <time>2012-07-19T08:30:37Z</time>
      </trkpt>
      <trkpt lat="42.82699" lon="1.45847">
        <ele>1801.508</ele>
        <time>2012-07-19T08:30:55Z</time>
      </trkpt>
      <trkpt lat="42.82681" lon="1.45853">
        <ele>1804.535</ele>
        <time>2012-07-19T08:31:16Z</time>
      </trkpt>
      <trkpt lat="42.82666" lon="1.45855">
        <ele>1804.024</ele>
        <time>2012-07-19T08:31:36Z</time>
      </trkpt>
      <trkpt lat="42.82657" lon="1.45858">
        <ele>1798.068</ele>
        <time>2012-07-19T08:32:05Z</time>
      </trkpt>
      <trkpt lat="42.82642" lon="1.4586">
        <ele>1792.496</ele>
        <time>2012-07-19T08:32:29Z</time>
      </trkpt>
      <trkpt lat="42.8263" lon="1.45878">
        <ele>1793.935</ele>
        <time>2012-07-19T08:32:48Z</time>
      </trkpt>
      <trkpt lat="42.82617" lon="1.45895">
        <ele>1796.733</ele>
        <time>2012-07-19T08:33:08Z</time>
      </trkpt>
      <trkpt lat="42.82596" lon="1.459">
        <ele>1797.334</ele>
        <time>2012-07-19T08:33:28Z</time>
      </trkpt>
      <trkpt lat="42.82577" lon="1.45901">
        <ele>1796.263</ele>
        <time>2012-07-19T08:33:46Z</time>
      </trkpt>
      <trkpt lat="42.82559" lon="1.45908">
        <ele>1797.795</ele>
        <time>2012-07-19T08:34:06Z</time>
      </trkpt>
      <trkpt lat="42.82542" lon="1.45906">
        <ele>1800.064</ele>
        <time>2012-07-19T08:34:27Z</time>
      </trkpt>
      <trkpt lat="42.82522" lon="1.45903">
        <ele>1797.505</ele>
        <time>2012-07-19T08:34:46Z</time>
      </trkpt>
      <trkpt lat="42.82505" lon="1.45903">
        <ele>1798.825</ele>
        <time>2012-07-19T08:35:04Z</time>
      </trkpt>
      <trkpt lat="42.82488" lon="1.45916">
        <ele>1802.466</ele>
        <time>2012-07-19T08:35:30Z</time>
      </trkpt>
      <trkpt lat="42.82469" lon="1.45925">
        <ele>1804.572</ele>
        <time>2012-07-19T08:35:49Z</time>
      </trkpt>
      <trkpt lat="42.82453" lon="1.4593">
        <ele>1803.41</ele>
        <time>2012-07-19T08:36:06Z</time>
      </trkpt>
      <trkpt lat="42.82436" lon="1.45941">
        <ele>1804.164</ele>
        <time>2012-07-19T08:36:24Z</time>
      </trkpt>
      <trkpt lat="42.82424" lon="1.45958">
        <ele>1800.151</ele>
        <time>2012-07-19T08:36:44Z</time>
      </trkpt>
      <trkpt lat="42.82408" lon="1.45959">
        <ele>1798.404</ele>
        <time>2012-07-19T08:37:03Z</time>
      </trkpt>
      <trkpt lat="42.824" lon="1.45977">
        <ele>1794.716</ele>
        <time>2012-07-19T08:37:22Z</time>
      </trkpt>
      <trkpt lat="42.82391" lon="1.45994">
        <ele>1794.772</ele>
        <time>2012-07-19T08:37:55Z</time>
      </trkpt>
      <trkpt lat="42.8238" lon="1.46013">
        <ele>1791.386</ele>
        <time>2012-07-19T08:38:16Z</time>
      </trkpt>
      <trkpt lat="42.82363" lon="1.46017">
        <ele>1790.039</ele>
        <time>2012-07-19T08:38:34Z</time>
      </trkpt>
      <trkpt lat="42.82346" lon="1.46021">
        <ele>1790.355</ele>
        <time>2012-07-19T08:38:52Z</time>
      </trkpt>
      <trkpt lat="42.82326" lon="1.46022">
        <ele>1791.93</ele>
        <time>2012-07-19T08:39:12Z</time>
      </trkpt>
      <trkpt lat="42.82307" lon="1.4603">
        <ele>1788.434</ele>
        <time>2012-07-19T08:39:31Z</time>
      </trkpt>
      <trkpt lat="42.82288" lon="1.4603">
        <ele>1785.418</ele>
        <time>2012-07-19T08:39:53Z</time>
      </trkpt>
      <trkpt lat="42.82281" lon="1.46045">
        <ele>1779.078</ele>
        <time>2012-07-19T08:40:21Z</time>
      </trkpt>
      <trkpt lat="42.82265" lon="1.46058">
        <ele>1775.883</ele>
        <time>2012-07-19T08:40:42Z</time>
      </trkpt>
      <trkpt lat="42.82247" lon="1.46054">
        <ele>1781.189</ele>
        <time>2012-07-19T08:41:18Z</time>
      </trkpt>
      <trkpt lat="42.82234" lon="1.46048">
        <ele>1786.026</ele>
        <time>2012-07-19T08:46:14Z</time>
      </trkpt>
      <trkpt lat="42.82215" lon="1.46053">
        <ele>1782.76</ele>
        <time>2012-07-19T08:46:38Z</time>
      </trkpt>
      <trkpt lat="42.82197" lon="1.4606">
        <ele>1782.751</ele>
        <time>2012-07-19T08:46:56Z</time>
      </trkpt>
      <trkpt lat="42.82181" lon="1.46069">
        <ele>1781.097</ele>
        <time>2012-07-19T08:47:13Z</time>
      </trkpt>
      <trkpt lat="42.82166" lon="1.4608">
        <ele>1783.349</ele>
        <time>2012-07-19T08:47:33Z</time>
      </trkpt>
      <trkpt lat="42.82147" lon="1.46088">
        <ele>1786.571</ele>
        <time>2012-07-19T08:47:54Z</time>
      </trkpt>
      <trkpt lat="42.82131" lon="1.46098">
        <ele>1784.8</ele>
        <time>2012-07-19T08:48:13Z</time>
      </trkpt>
      <trkpt lat="42.82113" lon="1.4609">
        <ele>1785.781</ele>
        <time>2012-07-19T08:48:29Z</time>
      </trkpt>
      <trkpt lat="42.82096" lon="1.46098">
        <ele>1787.92</ele>
        <time>2012-07-19T08:48:46Z</time>
      </trkpt>
      <trkpt lat="42.82081" lon="1.46101">
        <ele>1789.223</ele>
        <time>2012-07-19T08:49:04Z</time>
      </trkpt>
      <trkpt lat="42.82066" lon="1.46098">
        <ele>1788.713</ele>
        <time>2012-07-19T08:49:21Z</time>
      </trkpt>
      <trkpt lat="42.82049" lon="1.46099">
        <ele>1791.847</ele>
        <time>2012-07-19T08:49:42Z</time>
      </trkpt>
      <trkpt lat="42.82037" lon="1.46113">
        <ele>1796.011</ele>
        <time>2012-07-19T08:50:07Z</time>
      </trkpt>
      <trkpt lat="42.82026" lon="1.46121">
        <ele>1800.443</ele>
        <time>2012-07-19T08:50:36Z</time>
      </trkpt>
      <trkpt lat="42.81997" lon="1.46117">
        <ele>1804.927</ele>
        <time>2012-07-19T08:51:03Z</time>
      </trkpt>
      <trkpt lat="42.81988" lon="1.46113">
        <ele>1811.108</ele>
        <time>2012-07-19T08:51:38Z</time>
      </trkpt>
      <trkpt lat="42.81971" lon="1.46113">
        <ele>1815.149</ele>
        <time>2012-07-19T08:54:28Z</time>
      </trkpt>
      <trkpt lat="42.81958" lon="1.4611">
        <ele>1821.74</ele>
        <time>2012-07-19T08:55:28Z</time>
      </trkpt>
      <trkpt lat="42.81942" lon="1.46109">
        <ele>1828.43</ele>
        <time>2012-07-19T08:56:11Z</time>
      </trkpt>
      <trkpt lat="42.81927" lon="1.46117">
        <ele>1836.327</ele>
        <time>2012-07-19T08:57:00Z</time>
      </trkpt>
      <trkpt lat="42.81914" lon="1.46129">
        <ele>1842.937</ele>
        <time>2012-07-19T08:58:03Z</time>
      </trkpt>
      <trkpt lat="42.819" lon="1.4614">
        <ele>1847.902</ele>
        <time>2012-07-19T08:58:37Z</time>
      </trkpt>
      <trkpt lat="42.81878" lon="1.46143">
        <ele>1851.443</ele>
        <time>2012-07-19T08:59:07Z</time>
      </trkpt>
      <trkpt lat="42.81867" lon="1.46153">
        <ele>1851.784</ele>
        <time>2012-07-19T08:59:33Z</time>
      </trkpt>
      <trkpt lat="42.81851" lon="1.46166">
        <ele>1852.808</ele>
        <time>2012-07-19T09:00:20Z</time>
      </trkpt>
      <trkpt lat="42.81838" lon="1.46179">
        <ele>1856.108</ele>
        <time>2012-07-19T09:00:49Z</time>
      </trkpt>
      <trkpt lat="42.81822" lon="1.4618">
        <ele>1862.268</ele>
        <time>2012-07-19T09:01:54Z</time>
      </trkpt>
      <trkpt lat="42.81808" lon="1.46172">
        <ele>1866.878</ele>
        <time>2012-07-19T09:02:42Z</time>
      </trkpt>
      <trkpt lat="42.81796" lon="1.46159">
        <ele>1873.855</ele>
        <time>2012-07-19T09:03:30Z</time>
      </trkpt>
      <trkpt lat="42.81783" lon="1.46144">
        <ele>1880.297</ele>
        <time>2012-07-19T09:04:33Z</time>
      </trkpt>
      <trkpt lat="42.8176" lon="1.46136">
        <ele>1893.253</ele>
        <time>2012-07-19T09:06:17Z</time>
      </trkpt>
      <trkpt lat="42.81743" lon="1.46126">
        <ele>1901.789</ele>
        <time>2012-07-19T09:07:27Z</time>
      </trkpt>
      <trkpt lat="42.81725" lon="1.46129">
        <ele>1909.528</ele>
        <time>2012-07-19T09:08:16Z</time>
      </trkpt>
      <trkpt lat="42.81709" lon="1.4613">
        <ele>1916.968</ele>
        <time>2012-07-19T09:10:25Z</time>
      </trkpt>
      <trkpt lat="42.81692" lon="1.46129">
        <ele>1925.77</ele>
        <time>2012-07-19T09:11:13Z</time>
      </trkpt>
      <trkpt lat="42.81671" lon="1.46143">
        <ele>1940.256</ele>
        <time>2012-07-19T09:12:56Z</time>
      </trkpt>
      <trkpt lat="42.81656" lon="1.46129">
        <ele>1949.044</ele>
        <time>2012-07-19T09:14:19Z</time>
      </trkpt>
      <trkpt lat="42.81652" lon="1.46112">
        <ele>1949.766</ele>
        <time>2012-07-19T09:16:06Z</time>
      </trkpt>
      <trkpt lat="42.81659" lon="1.46089">
        <ele>1950.313</ele>
        <time>2012-07-19T09:16:26Z</time>
      </trkpt>
      <trkpt lat="42.81665" lon="1.46064">
        <ele>1951.391</ele>
        <time>2012-07-19T09:16:48Z</time>
      </trkpt>
      <trkpt lat="42.81671" lon="1.46048">
        <ele>1954.537</ele>
        <time>2012-07-19T09:23:31Z</time>
      </trkpt>
      <trkpt lat="42.81678" lon="1.46023">
        <ele>1961.625</ele>
        <time>2012-07-19T09:24:06Z</time>
      </trkpt>
      <trkpt lat="42.81681" lon="1.46007">
        <ele>1964.459</ele>
        <time>2012-07-19T09:24:35Z</time>
      </trkpt>
      <trkpt lat="42.81695" lon="1.45986">
        <ele>1967.535</ele>
        <time>2012-07-19T09:25:04Z</time>
      </trkpt>
      <trkpt lat="42.81704" lon="1.45971">
        <ele>1967.324</ele>
        <time>2012-07-19T09:25:32Z</time>
      </trkpt>
      <trkpt lat="42.81719" lon="1.45961">
        <ele>1970.01</ele>
        <time>2012-07-19T09:25:54Z</time>
      </trkpt>
      <trkpt lat="42.81736" lon="1.45944">
        <ele>1972.793</ele>
        <time>2012-07-19T09:26:20Z</time>
      </trkpt>
      <trkpt lat="42.81723" lon="1.45932">
        <ele>1985.328</ele>
        <time>2012-07-19T09:28:35Z</time>
      </trkpt>
      <trkpt lat="42.81736" lon="1.45913">
        <ele>1985.708</ele>
        <time>2012-07-19T09:29:11Z</time>
      </trkpt>
      <trkpt lat="42.81745" lon="1.45894">
        <ele>1984.104</ele>
        <time>2012-07-19T09:29:40Z</time>
      </trkpt>
      <trkpt lat="42.81748" lon="1.45852">
        <ele>1997.821</ele>
        <time>2012-07-19T09:31:34Z</time>
      </trkpt>
      <trkpt lat="42.81773" lon="1.45845">
        <ele>2005.933</ele>
        <time>2012-07-19T09:32:59Z</time>
      </trkpt>
      <trkpt lat="42.81788" lon="1.45844">
        <ele>2007.337</ele>
        <time>2012-07-19T09:33:37Z</time>
      </trkpt>
      <trkpt lat="42.81804" lon="1.45839">
        <ele>2008.24</ele>
        <time>2012-07-19T09:34:34Z</time>
      </trkpt>
      <trkpt lat="42.8182" lon="1.45844">
        <ele>2012.756</ele>
        <time>2012-07-19T09:36:11Z</time>
      </trkpt>
      <trkpt lat="42.81818" lon="1.45836">
        <ele>2015.751</ele>
        <time>2012-07-19T09:37:33Z</time>
      </trkpt>
      <trkpt lat="42.81833" lon="1.4582">
        <ele>2025.842</ele>
        <time>2012-07-19T09:38:47Z</time>
      </trkpt>
      <trkpt lat="42.81852" lon="1.45813">
        <ele>2026.903</ele>
        <time>2012-07-19T09:39:14Z</time>
      </trkpt>
      <trkpt lat="42.81867" lon="1.45815">
        <ele>2032.607</ele>
        <time>2012-07-19T09:40:06Z</time>
      </trkpt>
      <trkpt lat="42.8188" lon="1.45794">
        <ele>2037.208</ele>
        <time>2012-07-19T09:40:44Z</time>
      </trkpt>
      <trkpt lat="42.81891" lon="1.45777">
        <ele>2041.698</ele>
        <time>2012-07-19T09:41:12Z</time>
      </trkpt>
      <trkpt lat="42.81902" lon="1.45768">
        <ele>2043.04</ele>
        <time>2012-07-19T09:42:53Z</time>
      </trkpt>
      <trkpt lat="42.81917" lon="1.4575">
        <ele>2044.57</ele>
        <time>2012-07-19T09:43:13Z</time>
      </trkpt>
      <trkpt lat="42.81931" lon="1.45732">
        <ele>2045.948</ele>
        <time>2012-07-19T09:43:30Z</time>
      </trkpt>
      <trkpt lat="42.81943" lon="1.4571">
        <ele>2045.875</ele>
        <time>2012-07-19T09:43:54Z</time>
      </trkpt>
      <trkpt lat="42.81956" lon="1.45699">
        <ele>2049.919</ele>
        <time>2012-07-19T09:44:17Z</time>
      </trkpt>
      <trkpt lat="42.81975" lon="1.45678">
        <ele>2059.648</ele>
        <time>2012-07-19T09:45:38Z</time>
      </trkpt>
      <trkpt lat="42.81984" lon="1.45659">
        <ele>2064.584</ele>
        <time>2012-07-19T09:46:30Z</time>
      </trkpt>
      <trkpt lat="42.81997" lon="1.45644">
        <ele>2064.815</ele>
        <time>2012-07-19T09:48:10Z</time>
      </trkpt>
      <trkpt lat="42.82009" lon="1.45624">
        <ele>2066.7</ele>
        <time>2012-07-19T09:48:35Z</time>
      </trkpt>
      <trkpt lat="42.82022" lon="1.45612">
        <ele>2070.893</ele>
        <time>2012-07-19T09:49:01Z</time>
      </trkpt>
      <trkpt lat="42.82035" lon="1.45596">
        <ele>2072.195</ele>
        <time>2012-07-19T09:49:22Z</time>
      </trkpt>
      <trkpt lat="42.82053" lon="1.45586">
        <ele>2075.184</ele>
        <time>2012-07-19T09:49:49Z</time>
      </trkpt>
      <trkpt lat="42.82063" lon="1.45574">
        <ele>2075.111</ele>
        <time>2012-07-19T09:50:19Z</time>
      </trkpt>
      <trkpt lat="42.82081" lon="1.45558">
        <ele>2082.673</ele>
        <time>2012-07-19T09:52:05Z</time>
      </trkpt>
      <trkpt lat="42.8209" lon="1.45532">
        <ele>2081.012</ele>
        <time>2012-07-19T09:52:30Z</time>
      </trkpt>
      <trkpt lat="42.82099" lon="1.45512">
        <ele>2083.383</ele>
        <time>2012-07-19T09:52:52Z</time>
      </trkpt>
      <trkpt lat="42.82109" lon="1.45496">
        <ele>2088.943</ele>
        <time>2012-07-19T09:53:26Z</time>
      </trkpt>
      <trkpt lat="42.82115" lon="1.45472">
        <ele>2090.917</ele>
        <time>2012-07-19T09:53:51Z</time>
      </trkpt>
      <trkpt lat="42.82121" lon="1.4545">
        <ele>2094.838</ele>
        <time>2012-07-19T09:54:20Z</time>
      </trkpt>
      <trkpt lat="42.82128" lon="1.45433">
        <ele>2101.691</ele>
        <time>2012-07-19T09:56:38Z</time>
      </trkpt>
      <trkpt lat="42.82132" lon="1.45409">
        <ele>2105.295</ele>
        <time>2012-07-19T09:57:29Z</time>
      </trkpt>
      <trkpt lat="42.82141" lon="1.45384">
        <ele>2107.424</ele>
        <time>2012-07-19T09:57:54Z</time>
      </trkpt>
      <trkpt lat="42.82153" lon="1.45366">
        <ele>2113.208</ele>
        <time>2012-07-19T09:58:20Z</time>
      </trkpt>
      <trkpt lat="42.82162" lon="1.45375">
        <ele>2118.812</ele>
        <time>2012-07-19T09:59:02Z</time>
      </trkpt>
      <trkpt lat="42.82167" lon="1.45392">
        <ele>2123.7</ele>
        <time>2012-07-19T09:59:34Z</time>
      </trkpt>
      <trkpt lat="42.82174" lon="1.45371">
        <ele>2129.619</ele>
        <time>2012-07-19T10:00:20Z</time>
      </trkpt>
      <trkpt lat="42.82182" lon="1.45349">
        <ele>2138.542</ele>
        <time>2012-07-19T10:01:24Z</time>
      </trkpt>
      <trkpt lat="42.82187" lon="1.45328">
        <ele>2141.719</ele>
        <time>2012-07-19T10:01:51Z</time>
      </trkpt>
      <trkpt lat="42.82193" lon="1.45304">
        <ele>2144.277</ele>
        <time>2012-07-19T10:02:16Z</time>
      </trkpt>
      <trkpt lat="42.82201" lon="1.45283">
        <ele>2145.817</ele>
        <time>2012-07-19T10:02:39Z</time>
      </trkpt>
      <trkpt lat="42.82214" lon="1.45262">
        <ele>2146.986</ele>
        <time>2012-07-19T10:03:01Z</time>
      </trkpt>
      <trkpt lat="42.82227" lon="1.45246">
        <ele>2147.333</ele>
        <time>2012-07-19T10:03:23Z</time>
      </trkpt>
      <trkpt lat="42.82243" lon="1.45233">
        <ele>2148.543</ele>
        <time>2012-07-19T10:03:44Z</time>
      </trkpt>
      <trkpt lat="42.8226" lon="1.45223">
        <ele>2148.544</ele>
        <time>2012-07-19T10:04:04Z</time>
      </trkpt>
      <trkpt lat="42.82271" lon="1.45222">
        <ele>2147.983</ele>
        <time>2012-07-19T10:06:38Z</time>
      </trkpt>
      <trkpt lat="42.82282" lon="1.45202">
        <ele>2147.616</ele>
        <time>2012-07-19T10:06:56Z</time>
      </trkpt>
      <trkpt lat="42.8229" lon="1.45178">
        <ele>2146.525</ele>
        <time>2012-07-19T10:07:11Z</time>
      </trkpt>
      <trkpt lat="42.82302" lon="1.4516">
        <ele>2144.468</ele>
        <time>2012-07-19T10:07:27Z</time>
      </trkpt>
      <trkpt lat="42.82313" lon="1.45141">
        <ele>2142.013</ele>
        <time>2012-07-19T10:07:44Z</time>
      </trkpt>
      <trkpt lat="42.82322" lon="1.4512">
        <ele>2140.266</ele>
        <time>2012-07-19T10:08:00Z</time>
      </trkpt>
      <trkpt lat="42.82334" lon="1.45102">
        <ele>2138.781</ele>
        <time>2012-07-19T10:08:16Z</time>
      </trkpt>
      <trkpt lat="42.82345" lon="1.45083">
        <ele>2135.693</ele>
        <time>2012-07-19T10:08:33Z</time>
      </trkpt>
      <trkpt lat="42.82355" lon="1.45062">
        <ele>2132.608</ele>
        <time>2012-07-19T10:09:06Z</time>
      </trkpt>
      <trkpt lat="42.82362" lon="1.45042">
        <ele>2129.326</ele>
        <time>2012-07-19T10:09:26Z</time>
      </trkpt>
      <trkpt lat="42.82373" lon="1.45022">
        <ele>2126.091</ele>
        <time>2012-07-19T10:09:44Z</time>
      </trkpt>
      <trkpt lat="42.82385" lon="1.45004">
        <ele>2123.996</ele>
        <time>2012-07-19T10:10:02Z</time>
      </trkpt>
      <trkpt lat="42.82393" lon="1.44983">
        <ele>2122.009</ele>
        <time>2012-07-19T10:10:20Z</time>
      </trkpt>
      <trkpt lat="42.82405" lon="1.44963">
        <ele>2119.749</ele>
        <time>2012-07-19T10:10:44Z</time>
      </trkpt>
      <trkpt lat="42.82418" lon="1.44943">
        <ele>2116.144</ele>
        <time>2012-07-19T10:11:08Z</time>
      </trkpt>
      <trkpt lat="42.82424" lon="1.44921">
        <ele>2113.281</ele>
        <time>2012-07-19T10:11:28Z</time>
      </trkpt>
      <trkpt lat="42.82431" lon="1.44902">
        <ele>2110.589</ele>
        <time>2012-07-19T10:11:59Z</time>
      </trkpt>
      <trkpt lat="42.82435" lon="1.44879">
        <ele>2106.485</ele>
        <time>2012-07-19T10:12:21Z</time>
      </trkpt>
      <trkpt lat="42.82439" lon="1.44855">
        <ele>2101.947</ele>
        <time>2012-07-19T10:12:44Z</time>
      </trkpt>
      <trkpt lat="42.82444" lon="1.44831">
        <ele>2097.669</ele>
        <time>2012-07-19T10:13:05Z</time>
      </trkpt>
      <trkpt lat="42.82461" lon="1.44811">
        <ele>2101.742</ele>
        <time>2012-07-19T10:13:54Z</time>
      </trkpt>
      <trkpt lat="42.82479" lon="1.4479">
        <ele>2111.117</ele>
        <time>2012-07-19T10:15:59Z</time>
      </trkpt>
      <trkpt lat="42.82491" lon="1.44766">
        <ele>2120.674</ele>
        <time>2012-07-19T10:16:54Z</time>
      </trkpt>
      <trkpt lat="42.82508" lon="1.44747">
        <ele>2130.874</ele>
        <time>2012-07-19T10:18:36Z</time>
      </trkpt>
      <trkpt lat="42.82518" lon="1.44727">
        <ele>2135.979</ele>
        <time>2012-07-19T10:19:10Z</time>
      </trkpt>
      <trkpt lat="42.82529" lon="1.44712">
        <ele>2141.177</ele>
        <time>2012-07-19T10:20:06Z</time>
      </trkpt>
      <trkpt lat="42.82537" lon="1.44694">
        <ele>2142.821</ele>
        <time>2012-07-19T10:20:27Z</time>
      </trkpt>
      <trkpt lat="42.82547" lon="1.44674">
        <ele>2145.137</ele>
        <time>2012-07-19T10:20:47Z</time>
      </trkpt>
      <trkpt lat="42.82561" lon="1.44657">
        <ele>2146.827</ele>
        <time>2012-07-19T10:21:49Z</time>
      </trkpt>
      <trkpt lat="42.82575" lon="1.44637">
        <ele>2147.164</ele>
        <time>2012-07-19T10:22:14Z</time>
      </trkpt>
      <trkpt lat="42.82588" lon="1.44621">
        <ele>2148.209</ele>
        <time>2012-07-19T10:23:24Z</time>
      </trkpt>
      <trkpt lat="42.82603" lon="1.44605">
        <ele>2148.964</ele>
        <time>2012-07-19T10:23:43Z</time>
      </trkpt>
      <trkpt lat="42.8262" lon="1.44595">
        <ele>2147.996</ele>
        <time>2012-07-19T10:24:02Z</time>
      </trkpt>
      <trkpt lat="42.82638" lon="1.4459">
        <ele>2146.709</ele>
        <time>2012-07-19T10:24:21Z</time>
      </trkpt>
      <trkpt lat="42.82656" lon="1.44581">
        <ele>2144.476</ele>
        <time>2012-07-19T10:25:17Z</time>
      </trkpt>
      <trkpt lat="42.82675" lon="1.44568">
        <ele>2148.552</ele>
        <time>2012-07-19T10:25:43Z</time>
      </trkpt>
      <trkpt lat="42.82692" lon="1.44559">
        <ele>2152.608</ele>
        <time>2012-07-19T10:26:08Z</time>
      </trkpt>
      <trkpt lat="42.82715" lon="1.44555">
        <ele>2154.903</ele>
        <time>2012-07-19T10:26:37Z</time>
      </trkpt>
      <trkpt lat="42.82733" lon="1.44551">
        <ele>2156.765</ele>
        <time>2012-07-19T10:27:00Z</time>
      </trkpt>
      <trkpt lat="42.82748" lon="1.44538">
        <ele>2154.96</ele>
        <time>2012-07-19T10:27:21Z</time>
      </trkpt>
      <trkpt lat="42.82761" lon="1.44524">
        <ele>2155.52</ele>
        <time>2012-07-19T10:27:41Z</time>
      </trkpt>
      <trkpt lat="42.82777" lon="1.44515">
        <ele>2159.362</ele>
        <time>2012-07-19T10:28:11Z</time>
      </trkpt>
      <trkpt lat="42.82793" lon="1.44508">
        <ele>2162.967</ele>
        <time>2012-07-19T10:28:39Z</time>
      </trkpt>
      <trkpt lat="42.82811" lon="1.44501">
        <ele>2168.71</ele>
        <time>2012-07-19T10:29:08Z</time>
      </trkpt>
      <trkpt lat="42.82828" lon="1.44487">
        <ele>2176.943</ele>
        <time>2012-07-19T10:29:51Z</time>
      </trkpt>
      <trkpt lat="42.82848" lon="1.44475">
        <ele>2184.81</ele>
        <time>2012-07-19T10:30:38Z</time>
      </trkpt>
      <trkpt lat="42.82858" lon="1.44462">
        <ele>2188.062</ele>
        <time>2012-07-19T10:31:18Z</time>
      </trkpt>
      <trkpt lat="42.82862" lon="1.44441">
        <ele>2187.078</ele>
        <time>2012-07-19T10:32:17Z</time>
      </trkpt>
      <trkpt lat="42.82874" lon="1.44426">
        <ele>2188.972</ele>
        <time>2012-07-19T10:32:58Z</time>
      </trkpt>
      <trkpt lat="42.82872" lon="1.44426">
        <ele>2199.537</ele>
        <time>2012-07-19T11:24:43Z</time>
      </trkpt>
      <trkpt lat="42.82875" lon="1.44421">
        <ele>2199.455</ele>
        <time>2012-07-19T11:31:32Z</time>
      </trkpt>
      <trkpt lat="42.82882" lon="1.4441">
        <ele>2199.132</ele>
        <time>2012-07-19T11:32:41Z</time>
      </trkpt>
      <trkpt lat="42.82888" lon="1.4439">
        <ele>2196.894</ele>
        <time>2012-07-19T11:33:07Z</time>
      </trkpt>
      <trkpt lat="42.829" lon="1.44372">
        <ele>2197.427</ele>
        <time>2012-07-19T11:33:31Z</time>
      </trkpt>
      <trkpt lat="42.82911" lon="1.44353">
        <ele>2195.883</ele>
        <time>2012-07-19T11:33:52Z</time>
      </trkpt>
      <trkpt lat="42.82919" lon="1.44331">
        <ele>2193.889</ele>
        <time>2012-07-19T11:34:13Z</time>
      </trkpt>
      <trkpt lat="42.82933" lon="1.4432">
        <ele>2193.251</ele>
        <time>2012-07-19T11:34:38Z</time>
      </trkpt>
      <trkpt lat="42.82932" lon="1.44295">
        <ele>2190.38</ele>
        <time>2012-07-19T11:35:01Z</time>
      </trkpt>
      <trkpt lat="42.8293" lon="1.44273">
        <ele>2183.931</ele>
        <time>2012-07-19T11:35:31Z</time>
      </trkpt>
      <trkpt lat="42.82935" lon="1.44252">
        <ele>2181.492</ele>
        <time>2012-07-19T11:35:55Z</time>
      </trkpt>
      <trkpt lat="42.82942" lon="1.44231">
        <ele>2178.361</ele>
        <time>2012-07-19T11:36:33Z</time>
      </trkpt>
      <trkpt lat="42.82948" lon="1.44211">
        <ele>2175.324</ele>
        <time>2012-07-19T11:37:18Z</time>
      </trkpt>
      <trkpt lat="42.82958" lon="1.44193">
        <ele>2170.267</ele>
        <time>2012-07-19T11:37:44Z</time>
      </trkpt>
      <trkpt lat="42.82969" lon="1.44174">
        <ele>2167.568</ele>
        <time>2012-07-19T11:38:09Z</time>
      </trkpt>
      <trkpt lat="42.82985" lon="1.44162">
        <ele>2166.062</ele>
        <time>2012-07-19T11:38:30Z</time>
      </trkpt>
      <trkpt lat="42.83" lon="1.44153">
        <ele>2164.436</ele>
        <time>2012-07-19T11:38:54Z</time>
      </trkpt>
      <trkpt lat="42.83014" lon="1.44138">
        <ele>2166.099</ele>
        <time>2012-07-19T11:39:19Z</time>
      </trkpt>
      <trkpt lat="42.83023" lon="1.44116">
        <ele>2165.656</ele>
        <time>2012-07-19T11:39:45Z</time>
      </trkpt>
      <trkpt lat="42.83027" lon="1.44094">
        <ele>2163.621</ele>
        <time>2012-07-19T11:40:10Z</time>
      </trkpt>
      <trkpt lat="42.83027" lon="1.4407">
        <ele>2169.25</ele>
        <time>2012-07-19T11:40:41Z</time>
      </trkpt>
      <trkpt lat="42.83031" lon="1.44053">
        <ele>2176.163</ele>
        <time>2012-07-19T11:41:23Z</time>
      </trkpt>
      <trkpt lat="42.83035" lon="1.44042">
        <ele>2180.582</ele>
        <time>2012-07-19T11:42:10Z</time>
      </trkpt>
      <trkpt lat="42.83038" lon="1.44023">
        <ele>2186.069</ele>
        <time>2012-07-19T11:43:00Z</time>
      </trkpt>
      <trkpt lat="42.83047" lon="1.44018">
        <ele>2196.651</ele>
        <time>2012-07-19T11:43:57Z</time>
      </trkpt>
      <trkpt lat="42.83055" lon="1.44013">
        <ele>2200.098</ele>
        <time>2012-07-19T11:45:35Z</time>
      </trkpt>
      <trkpt lat="42.83055" lon="1.44013">
        <ele>2199.664</ele>
        <time>2012-07-19T11:55:01Z</time>
      </trkpt>
      <trkpt lat="42.83044" lon="1.44016">
        <ele>2194.443</ele>
        <time>2012-07-19T11:56:37Z</time>
      </trkpt>
      <trkpt lat="42.83037" lon="1.44026">
        <ele>2184.662</ele>
        <time>2012-07-19T11:58:09Z</time>
      </trkpt>
      <trkpt lat="42.83035" lon="1.44042">
        <ele>2178.639</ele>
        <time>2012-07-19T11:59:17Z</time>
      </trkpt>
      <trkpt lat="42.83027" lon="1.44058">
        <ele>2170.682</ele>
        <time>2012-07-19T12:00:32Z</time>
      </trkpt>
      <trkpt lat="42.83027" lon="1.44081">
        <ele>2165.317</ele>
        <time>2012-07-19T12:01:07Z</time>
      </trkpt>
      <trkpt lat="42.83024" lon="1.44105">
        <ele>2162.596</ele>
        <time>2012-07-19T12:01:31Z</time>
      </trkpt>
      <trkpt lat="42.8302" lon="1.44128">
        <ele>2162.69</ele>
        <time>2012-07-19T12:01:54Z</time>
      </trkpt>
      <trkpt lat="42.83009" lon="1.44146">
        <ele>2163.348</ele>
        <time>2012-07-19T12:02:16Z</time>
      </trkpt>
      <trkpt lat="42.82994" lon="1.44156">
        <ele>2161.804</ele>
        <time>2012-07-19T12:02:49Z</time>
      </trkpt>
      <trkpt lat="42.82978" lon="1.44168">
        <ele>2164.353</ele>
        <time>2012-07-19T12:03:10Z</time>
      </trkpt>
      <trkpt lat="42.82964" lon="1.44183">
        <ele>2165.135</ele>
        <time>2012-07-19T12:03:31Z</time>
      </trkpt>
      <trkpt lat="42.82952" lon="1.44198">
        <ele>2169.369</ele>
        <time>2012-07-19T12:04:16Z</time>
      </trkpt>
      <trkpt lat="42.82939" lon="1.44216">
        <ele>2168.786</ele>
        <time>2012-07-19T12:04:38Z</time>
      </trkpt>
      <trkpt lat="42.8293" lon="1.44236">
        <ele>2168.659</ele>
        <time>2012-07-19T12:05:04Z</time>
      </trkpt>
      <trkpt lat="42.82921" lon="1.44254">
        <ele>2168.932</ele>
        <time>2012-07-19T12:05:48Z</time>
      </trkpt>
      <trkpt lat="42.82914" lon="1.44278">
        <ele>2171.32</ele>
        <time>2012-07-19T12:06:21Z</time>
      </trkpt>
      <trkpt lat="42.82906" lon="1.44298">
        <ele>2171.896</ele>
        <time>2012-07-19T12:06:47Z</time>
      </trkpt>
      <trkpt lat="42.82898" lon="1.44318">
        <ele>2175.468</ele>
        <time>2012-07-19T12:07:26Z</time>
      </trkpt>
      <trkpt lat="42.82888" lon="1.4434">
        <ele>2178.71</ele>
        <time>2012-07-19T12:07:56Z</time>
      </trkpt>
      <trkpt lat="42.82877" lon="1.44357">
        <ele>2180.66</ele>
        <time>2012-07-19T12:08:26Z</time>
      </trkpt>
      <trkpt lat="42.82866" lon="1.44379">
        <ele>2182.751</ele>
        <time>2012-07-19T12:09:11Z</time>
      </trkpt>
      <trkpt lat="42.82859" lon="1.444">
        <ele>2186.313</ele>
        <time>2012-07-19T12:10:35Z</time>
      </trkpt>
      <trkpt lat="42.82855" lon="1.44423">
        <ele>2189.383</ele>
        <time>2012-07-19T12:11:12Z</time>
      </trkpt>
      <trkpt lat="42.82852" lon="1.44447">
        <ele>2193.239</ele>
        <time>2012-07-19T12:11:39Z</time>
      </trkpt>
      <trkpt lat="42.82843" lon="1.44465">
        <ele>2193.502</ele>
        <time>2012-07-19T12:12:16Z</time>
      </trkpt>
      <trkpt lat="42.82853" lon="1.44472">
        <ele>2198.752</ele>
        <time>2012-07-19T12:13:13Z</time>
      </trkpt>
      <trkpt lat="42.8284" lon="1.44484">
        <ele>2192.259</ele>
        <time>2012-07-19T12:14:07Z</time>
      </trkpt>
      <trkpt lat="42.82824" lon="1.44492">
        <ele>2184.36</ele>
        <time>2012-07-19T12:14:41Z</time>
      </trkpt>
      <trkpt lat="42.82811" lon="1.445">
        <ele>2179.814</ele>
        <time>2012-07-19T12:15:35Z</time>
      </trkpt>
      <trkpt lat="42.82794" lon="1.44508">
        <ele>2175.234</ele>
        <time>2012-07-19T12:16:23Z</time>
      </trkpt>
      <trkpt lat="42.82778" lon="1.44516">
        <ele>2171.299</ele>
        <time>2012-07-19T12:16:43Z</time>
      </trkpt>
      <trkpt lat="42.82764" lon="1.44532">
        <ele>2167.407</ele>
        <time>2012-07-19T12:17:04Z</time>
      </trkpt>
      <trkpt lat="42.82749" lon="1.44542">
        <ele>2166.853</ele>
        <time>2012-07-19T12:17:34Z</time>
      </trkpt>
      <trkpt lat="42.82733" lon="1.44551">
        <ele>2167.61</ele>
        <time>2012-07-19T12:17:55Z</time>
      </trkpt>
      <trkpt lat="42.82716" lon="1.44555">
        <ele>2167.195</ele>
        <time>2012-07-19T12:18:17Z</time>
      </trkpt>
      <trkpt lat="42.82698" lon="1.4456">
        <ele>2165.337</ele>
        <time>2012-07-19T12:18:39Z</time>
      </trkpt>
      <trkpt lat="42.82682" lon="1.44565">
        <ele>2161.273</ele>
        <time>2012-07-19T12:19:03Z</time>
      </trkpt>
      <trkpt lat="42.82665" lon="1.44572">
        <ele>2155.955</ele>
        <time>2012-07-19T12:19:27Z</time>
      </trkpt>
      <trkpt lat="42.82649" lon="1.44583">
        <ele>2155.138</ele>
        <time>2012-07-19T12:19:45Z</time>
      </trkpt>
      <trkpt lat="42.8263" lon="1.4459">
        <ele>2156.977</ele>
        <time>2012-07-19T12:20:05Z</time>
      </trkpt>
      <trkpt lat="42.82614" lon="1.44599">
        <ele>2159.043</ele>
        <time>2012-07-19T12:20:26Z</time>
      </trkpt>
      <trkpt lat="42.82597" lon="1.44608">
        <ele>2159.638</ele>
        <time>2012-07-19T12:20:46Z</time>
      </trkpt>
      <trkpt lat="42.82584" lon="1.44624">
        <ele>2158.455</ele>
        <time>2012-07-19T12:21:10Z</time>
      </trkpt>
      <trkpt lat="42.82572" lon="1.44643">
        <ele>2157.466</ele>
        <time>2012-07-19T12:21:27Z</time>
      </trkpt>
      <trkpt lat="42.8256" lon="1.44661">
        <ele>2156.857</ele>
        <time>2012-07-19T12:21:45Z</time>
      </trkpt>
      <trkpt lat="42.82547" lon="1.44679">
        <ele>2155.995</ele>
        <time>2012-07-19T12:22:03Z</time>
      </trkpt>
      <trkpt lat="42.82536" lon="1.44698">
        <ele>2153.421</ele>
        <time>2012-07-19T12:22:22Z</time>
      </trkpt>
      <trkpt lat="42.82526" lon="1.4472">
        <ele>2151.116</ele>
        <time>2012-07-19T12:22:41Z</time>
      </trkpt>
      <trkpt lat="42.82517" lon="1.44739">
        <ele>2146.384</ele>
        <time>2012-07-19T12:23:03Z</time>
      </trkpt>
      <trkpt lat="42.82512" lon="1.44757">
        <ele>2142.488</ele>
        <time>2012-07-19T12:23:30Z</time>
      </trkpt>
      <trkpt lat="42.82498" lon="1.44765">
        <ele>2135.519</ele>
        <time>2012-07-19T12:24:04Z</time>
      </trkpt>
      <trkpt lat="42.82485" lon="1.44777">
        <ele>2126.904</ele>
        <time>2012-07-19T12:24:56Z</time>
      </trkpt>
      <trkpt lat="42.82475" lon="1.44793">
        <ele>2120.573</ele>
        <time>2012-07-19T12:25:28Z</time>
      </trkpt>
      <trkpt lat="42.82464" lon="1.44804">
        <ele>2114.708</ele>
        <time>2012-07-19T12:26:08Z</time>
      </trkpt>
      <trkpt lat="42.82452" lon="1.44819">
        <ele>2109.741</ele>
        <time>2012-07-19T12:26:42Z</time>
      </trkpt>
      <trkpt lat="42.82439" lon="1.44839">
        <ele>2107.373</ele>
        <time>2012-07-19T12:27:02Z</time>
      </trkpt>
      <trkpt lat="42.82436" lon="1.4486">
        <ele>2111.66</ele>
        <time>2012-07-19T12:27:29Z</time>
      </trkpt>
      <trkpt lat="42.82432" lon="1.44881">
        <ele>2115.143</ele>
        <time>2012-07-19T12:27:59Z</time>
      </trkpt>
      <trkpt lat="42.8243" lon="1.44901">
        <ele>2119.637</ele>
        <time>2012-07-19T12:28:56Z</time>
      </trkpt>
      <trkpt lat="42.82424" lon="1.4492">
        <ele>2123.103</ele>
        <time>2012-07-19T12:30:02Z</time>
      </trkpt>
      <trkpt lat="42.82418" lon="1.44944">
        <ele>2124.12</ele>
        <time>2012-07-19T12:30:32Z</time>
      </trkpt>
      <trkpt lat="42.82408" lon="1.44964">
        <ele>2126.65</ele>
        <time>2012-07-19T12:31:22Z</time>
      </trkpt>
      <trkpt lat="42.82395" lon="1.44981">
        <ele>2129.888</ele>
        <time>2012-07-19T12:31:49Z</time>
      </trkpt>
      <trkpt lat="42.82386" lon="1.45003">
        <ele>2133.242</ele>
        <time>2012-07-19T12:32:33Z</time>
      </trkpt>
      <trkpt lat="42.82374" lon="1.45021">
        <ele>2134.839</ele>
        <time>2012-07-19T12:33:05Z</time>
      </trkpt>
      <trkpt lat="42.82364" lon="1.45041">
        <ele>2138.209</ele>
        <time>2012-07-19T12:33:27Z</time>
      </trkpt>
      <trkpt lat="42.82357" lon="1.45062">
        <ele>2141.338</ele>
        <time>2012-07-19T12:34:31Z</time>
      </trkpt>
      <trkpt lat="42.82346" lon="1.45081">
        <ele>2145.092</ele>
        <time>2012-07-19T12:34:56Z</time>
      </trkpt>
      <trkpt lat="42.82336" lon="1.45103">
        <ele>2148.099</ele>
        <time>2012-07-19T12:35:21Z</time>
      </trkpt>
      <trkpt lat="42.82326" lon="1.45125">
        <ele>2148.862</ele>
        <time>2012-07-19T12:35:44Z</time>
      </trkpt>
      <trkpt lat="42.82319" lon="1.45146">
        <ele>2150.866</ele>
        <time>2012-07-19T12:36:18Z</time>
      </trkpt>
      <trkpt lat="42.82311" lon="1.45168">
        <ele>2152.056</ele>
        <time>2012-07-19T12:36:40Z</time>
      </trkpt>
      <trkpt lat="42.82303" lon="1.4519">
        <ele>2154.463</ele>
        <time>2012-07-19T12:37:03Z</time>
      </trkpt>
      <trkpt lat="42.82293" lon="1.45211">
        <ele>2156.312</ele>
        <time>2012-07-19T12:37:26Z</time>
      </trkpt>
      <trkpt lat="42.82287" lon="1.45236">
        <ele>2157.005</ele>
        <time>2012-07-19T12:37:47Z</time>
      </trkpt>
      <trkpt lat="42.82281" lon="1.45258">
        <ele>2157.158</ele>
        <time>2012-07-19T12:38:08Z</time>
      </trkpt>
      <trkpt lat="42.82274" lon="1.45282">
        <ele>2158.439</ele>
        <time>2012-07-19T12:38:28Z</time>
      </trkpt>
      <trkpt lat="42.82266" lon="1.45302">
        <ele>2160.319</ele>
        <time>2012-07-19T12:38:49Z</time>
      </trkpt>
      <trkpt lat="42.82252" lon="1.45317">
        <ele>2163.47</ele>
        <time>2012-07-19T12:39:11Z</time>
      </trkpt>
      <trkpt lat="42.82243" lon="1.45321">
        <ele>2163.155</ele>
        <time>2012-07-19T12:41:30Z</time>
      </trkpt>
      <trkpt lat="42.8223" lon="1.45335">
        <ele>2162.25</ele>
        <time>2012-07-19T12:41:52Z</time>
      </trkpt>
      <trkpt lat="42.82211" lon="1.4534">
        <ele>2159.718</ele>
        <time>2012-07-19T12:42:11Z</time>
      </trkpt>
      <trkpt lat="42.822" lon="1.45358">
        <ele>2157.59</ele>
        <time>2012-07-19T12:42:31Z</time>
      </trkpt>
      <trkpt lat="42.82194" lon="1.45381">
        <ele>2155.014</ele>
        <time>2012-07-19T12:42:51Z</time>
      </trkpt>
      <trkpt lat="42.82186" lon="1.45402">
        <ele>2151.003</ele>
        <time>2012-07-19T12:43:15Z</time>
      </trkpt>
      <trkpt lat="42.82178" lon="1.45419">
        <ele>2145.825</ele>
        <time>2012-07-19T12:43:42Z</time>
      </trkpt>
      <trkpt lat="42.82173" lon="1.4544">
        <ele>2143.301</ele>
        <time>2012-07-19T12:44:21Z</time>
      </trkpt>
      <trkpt lat="42.82166" lon="1.45461">
        <ele>2138.7</ele>
        <time>2012-07-19T12:44:49Z</time>
      </trkpt>
      <trkpt lat="42.82151" lon="1.45459">
        <ele>2131.929</ele>
        <time>2012-07-19T12:45:21Z</time>
      </trkpt>
      <trkpt lat="42.82141" lon="1.45475">
        <ele>2125.741</ele>
        <time>2012-07-19T12:46:01Z</time>
      </trkpt>
      <trkpt lat="42.82133" lon="1.45488">
        <ele>2122.651</ele>
        <time>2012-07-19T12:46:37Z</time>
      </trkpt>
      <trkpt lat="42.82126" lon="1.45479">
        <ele>2116.462</ele>
        <time>2012-07-19T12:47:27Z</time>
      </trkpt>
      <trkpt lat="42.8212" lon="1.45483">
        <ele>2109.241</ele>
        <time>2012-07-19T12:50:35Z</time>
      </trkpt>
      <trkpt lat="42.8211" lon="1.45499">
        <ele>2106.254</ele>
        <time>2012-07-19T12:51:15Z</time>
      </trkpt>
      <trkpt lat="42.82101" lon="1.45516">
        <ele>2100.28</ele>
        <time>2012-07-19T12:51:45Z</time>
      </trkpt>
      <trkpt lat="42.82091" lon="1.45538">
        <ele>2099.037</ele>
        <time>2012-07-19T12:52:09Z</time>
      </trkpt>
      <trkpt lat="42.82087" lon="1.45563">
        <ele>2100.216</ele>
        <time>2012-07-19T12:52:31Z</time>
      </trkpt>
      <trkpt lat="42.82075" lon="1.45573">
        <ele>2096.108</ele>
        <time>2012-07-19T12:53:08Z</time>
      </trkpt>
      <trkpt lat="42.82066" lon="1.45587">
        <ele>2094.972</ele>
        <time>2012-07-19T12:53:34Z</time>
      </trkpt>
      <trkpt lat="42.82048" lon="1.45592">
        <ele>2092.689</ele>
        <time>2012-07-19T12:53:57Z</time>
      </trkpt>
      <trkpt lat="42.82032" lon="1.45602">
        <ele>2090.188</ele>
        <time>2012-07-19T12:54:19Z</time>
      </trkpt>
      <trkpt lat="42.82022" lon="1.45621">
        <ele>2087.567</ele>
        <time>2012-07-19T12:54:40Z</time>
      </trkpt>
      <trkpt lat="42.8201" lon="1.45638">
        <ele>2087.493</ele>
        <time>2012-07-19T12:54:59Z</time>
      </trkpt>
      <trkpt lat="42.81999" lon="1.45657">
        <ele>2086.437</ele>
        <time>2012-07-19T12:55:20Z</time>
      </trkpt>
      <trkpt lat="42.81989" lon="1.45676">
        <ele>2083.783</ele>
        <time>2012-07-19T12:55:44Z</time>
      </trkpt>
      <trkpt lat="42.81976" lon="1.4568">
        <ele>2076.81</ele>
        <time>2012-07-19T12:56:20Z</time>
      </trkpt>
      <trkpt lat="42.81962" lon="1.45695">
        <ele>2070.425</ele>
        <time>2012-07-19T12:56:47Z</time>
      </trkpt>
      <trkpt lat="42.81949" lon="1.45707">
        <ele>2066.696</ele>
        <time>2012-07-19T12:57:31Z</time>
      </trkpt>
      <trkpt lat="42.81941" lon="1.45719">
        <ele>2066.544</ele>
        <time>2012-07-19T12:59:42Z</time>
      </trkpt>
      <trkpt lat="42.81932" lon="1.45741">
        <ele>2066.128</ele>
        <time>2012-07-19T13:00:03Z</time>
      </trkpt>
      <trkpt lat="42.81918" lon="1.45755">
        <ele>2066.118</ele>
        <time>2012-07-19T13:00:33Z</time>
      </trkpt>
      <trkpt lat="42.81909" lon="1.45764">
        <ele>2066.251</ele>
        <time>2012-07-19T13:02:18Z</time>
      </trkpt>
      <trkpt lat="42.81894" lon="1.45776">
        <ele>2064.694</ele>
        <time>2012-07-19T13:02:35Z</time>
      </trkpt>
      <trkpt lat="42.81882" lon="1.45795">
        <ele>2059.631</ele>
        <time>2012-07-19T13:03:00Z</time>
      </trkpt>
      <trkpt lat="42.8187" lon="1.45814">
        <ele>2055.271</ele>
        <time>2012-07-19T13:03:23Z</time>
      </trkpt>
      <trkpt lat="42.81853" lon="1.45812">
        <ele>2049.778</ele>
        <time>2012-07-19T13:03:50Z</time>
      </trkpt>
      <trkpt lat="42.81836" lon="1.4582">
        <ele>2047.733</ele>
        <time>2012-07-19T13:04:15Z</time>
      </trkpt>
      <trkpt lat="42.81826" lon="1.45825">
        <ele>2038.901</ele>
        <time>2012-07-19T13:05:32Z</time>
      </trkpt>
      <trkpt lat="42.81816" lon="1.45831">
        <ele>2032.233</ele>
        <time>2012-07-19T13:06:53Z</time>
      </trkpt>
      <trkpt lat="42.81799" lon="1.4584">
        <ele>2029.195</ele>
        <time>2012-07-19T13:07:18Z</time>
      </trkpt>
      <trkpt lat="42.81781" lon="1.45842">
        <ele>2027.61</ele>
        <time>2012-07-19T13:07:47Z</time>
      </trkpt>
      <trkpt lat="42.81766" lon="1.4585">
        <ele>2024.814</ele>
        <time>2012-07-19T13:08:15Z</time>
      </trkpt>
      <trkpt lat="42.81754" lon="1.45854">
        <ele>2018.799</ele>
        <time>2012-07-19T13:09:06Z</time>
      </trkpt>
      <trkpt lat="42.81749" lon="1.4587">
        <ele>2011.894</ele>
        <time>2012-07-19T13:09:46Z</time>
      </trkpt>
      <trkpt lat="42.81749" lon="1.45892">
        <ele>2005.445</ele>
        <time>2012-07-19T13:10:30Z</time>
      </trkpt>
      <trkpt lat="42.81738" lon="1.45912">
        <ele>2005.997</ele>
        <time>2012-07-19T13:10:56Z</time>
      </trkpt>
      <trkpt lat="42.81734" lon="1.45932">
        <ele>2008.386</ele>
        <time>2012-07-19T13:14:56Z</time>
      </trkpt>
      <trkpt lat="42.81727" lon="1.45939">
        <ele>2002.14</ele>
        <time>2012-07-19T13:15:35Z</time>
      </trkpt>
      <trkpt lat="42.81733" lon="1.45949">
        <ele>1994.109</ele>
        <time>2012-07-19T13:16:19Z</time>
      </trkpt>
      <trkpt lat="42.81723" lon="1.45962">
        <ele>1990.469</ele>
        <time>2012-07-19T13:16:47Z</time>
      </trkpt>
      <trkpt lat="42.81707" lon="1.4597">
        <ele>1987.405</ele>
        <time>2012-07-19T13:17:13Z</time>
      </trkpt>
      <trkpt lat="42.81695" lon="1.45987">
        <ele>1988.47</ele>
        <time>2012-07-19T13:17:35Z</time>
      </trkpt>
      <trkpt lat="42.81687" lon="1.46008">
        <ele>1985.272</ele>
        <time>2012-07-19T13:18:03Z</time>
      </trkpt>
      <trkpt lat="42.81685" lon="1.4603">
        <ele>1979.549</ele>
        <time>2012-07-19T13:19:00Z</time>
      </trkpt>
      <trkpt lat="42.81677" lon="1.46046">
        <ele>1975.89</ele>
        <time>2012-07-19T13:19:26Z</time>
      </trkpt>
      <trkpt lat="42.81669" lon="1.4606">
        <ele>1972.266</ele>
        <time>2012-07-19T13:19:54Z</time>
      </trkpt>
      <trkpt lat="42.81664" lon="1.46084">
        <ele>1969.026</ele>
        <time>2012-07-19T13:20:21Z</time>
      </trkpt>
      <trkpt lat="42.81658" lon="1.46106">
        <ele>1969.74</ele>
        <time>2012-07-19T13:20:44Z</time>
      </trkpt>
      <trkpt lat="42.81661" lon="1.46129">
        <ele>1966.419</ele>
        <time>2012-07-19T13:21:07Z</time>
      </trkpt>
      <trkpt lat="42.8167" lon="1.46139">
        <ele>1962.1</ele>
        <time>2012-07-19T13:21:35Z</time>
      </trkpt>
      <trkpt lat="42.81682" lon="1.46142">
        <ele>1954.932</ele>
        <time>2012-07-19T13:22:16Z</time>
      </trkpt>
      <trkpt lat="42.81692" lon="1.46131">
        <ele>1947.176</ele>
        <time>2012-07-19T13:22:49Z</time>
      </trkpt>
      <trkpt lat="42.81707" lon="1.46129">
        <ele>1938.599</ele>
        <time>2012-07-19T13:23:23Z</time>
      </trkpt>
      <trkpt lat="42.81723" lon="1.46128">
        <ele>1930.708</ele>
        <time>2012-07-19T13:24:01Z</time>
      </trkpt>
      <trkpt lat="42.8174" lon="1.46125">
        <ele>1923.731</ele>
        <time>2012-07-19T13:24:25Z</time>
      </trkpt>
      <trkpt lat="42.81757" lon="1.46121">
        <ele>1915.57</ele>
        <time>2012-07-19T13:24:54Z</time>
      </trkpt>
      <trkpt lat="42.81774" lon="1.46128">
        <ele>1907.011</ele>
        <time>2012-07-19T13:25:20Z</time>
      </trkpt>
      <trkpt lat="42.81783" lon="1.46143">
        <ele>1900.704</ele>
        <time>2012-07-19T13:28:06Z</time>
      </trkpt>
      <trkpt lat="42.81795" lon="1.46158">
        <ele>1894.183</ele>
        <time>2012-07-19T13:28:43Z</time>
      </trkpt>
      <trkpt lat="42.81804" lon="1.46173">
        <ele>1887.966</ele>
        <time>2012-07-19T13:29:17Z</time>
      </trkpt>
      <trkpt lat="42.8182" lon="1.46183">
        <ele>1882.413</ele>
        <time>2012-07-19T13:29:44Z</time>
      </trkpt>
      <trkpt lat="42.81837" lon="1.4618">
        <ele>1875.836</ele>
        <time>2012-07-19T13:30:13Z</time>
      </trkpt>
      <trkpt lat="42.81851" lon="1.46167">
        <ele>1873.49</ele>
        <time>2012-07-19T13:30:35Z</time>
      </trkpt>
      <trkpt lat="42.81867" lon="1.46156">
        <ele>1872.16</ele>
        <time>2012-07-19T13:30:55Z</time>
      </trkpt>
      <trkpt lat="42.81883" lon="1.46145">
        <ele>1872.164</ele>
        <time>2012-07-19T13:31:16Z</time>
      </trkpt>
      <trkpt lat="42.81896" lon="1.46141">
        <ele>1867.26</ele>
        <time>2012-07-19T13:31:42Z</time>
      </trkpt>
      <trkpt lat="42.81909" lon="1.4613">
        <ele>1863.621</ele>
        <time>2012-07-19T13:32:19Z</time>
      </trkpt>
      <trkpt lat="42.81923" lon="1.46119">
        <ele>1857.688</ele>
        <time>2012-07-19T13:32:48Z</time>
      </trkpt>
      <trkpt lat="42.81937" lon="1.46116">
        <ele>1851.147</ele>
        <time>2012-07-19T13:33:20Z</time>
      </trkpt>
      <trkpt lat="42.81951" lon="1.46113">
        <ele>1842.856</ele>
        <time>2012-07-19T13:33:53Z</time>
      </trkpt>
      <trkpt lat="42.81967" lon="1.46115">
        <ele>1837.272</ele>
        <time>2012-07-19T13:34:28Z</time>
      </trkpt>
      <trkpt lat="42.8198" lon="1.46114">
        <ele>1829.62</ele>
        <time>2012-07-19T13:37:52Z</time>
      </trkpt>
      <trkpt lat="42.81995" lon="1.46123">
        <ele>1822.138</ele>
        <time>2012-07-19T13:38:27Z</time>
      </trkpt>
      <trkpt lat="42.82012" lon="1.46121">
        <ele>1816.006</ele>
        <time>2012-07-19T13:38:59Z</time>
      </trkpt>
      <trkpt lat="42.82029" lon="1.46117">
        <ele>1812.334</ele>
        <time>2012-07-19T13:39:23Z</time>
      </trkpt>
      <trkpt lat="42.82043" lon="1.46108">
        <ele>1806.653</ele>
        <time>2012-07-19T13:39:50Z</time>
      </trkpt>
      <trkpt lat="42.82057" lon="1.46097">
        <ele>1803.173</ele>
        <time>2012-07-19T13:40:10Z</time>
      </trkpt>
      <trkpt lat="42.82073" lon="1.46101">
        <ele>1801.428</ele>
        <time>2012-07-19T13:40:27Z</time>
      </trkpt>
      <trkpt lat="42.82089" lon="1.46109">
        <ele>1801.607</ele>
        <time>2012-07-19T13:40:46Z</time>
      </trkpt>
      <trkpt lat="42.82101" lon="1.4613">
        <ele>1799.233</ele>
        <time>2012-07-19T13:41:05Z</time>
      </trkpt>
      <trkpt lat="42.82111" lon="1.46149">
        <ele>1799.472</ele>
        <time>2012-07-19T13:41:24Z</time>
      </trkpt>
      <trkpt lat="42.82124" lon="1.46165">
        <ele>1802.859</ele>
        <time>2012-07-19T13:41:46Z</time>
      </trkpt>
      <trkpt lat="42.82131" lon="1.46188">
        <ele>1799.492</ele>
        <time>2012-07-19T13:42:08Z</time>
      </trkpt>
      <trkpt lat="42.82137" lon="1.46211">
        <ele>1798.44</ele>
        <time>2012-07-19T13:42:26Z</time>
      </trkpt>
      <trkpt lat="42.82143" lon="1.46232">
        <ele>1797.892</ele>
        <time>2012-07-19T13:42:45Z</time>
      </trkpt>
      <trkpt lat="42.82157" lon="1.46246">
        <ele>1795.442</ele>
        <time>2012-07-19T13:43:03Z</time>
      </trkpt>
      <trkpt lat="42.82173" lon="1.46261">
        <ele>1791.693</ele>
        <time>2012-07-19T13:43:23Z</time>
      </trkpt>
      <trkpt lat="42.8219" lon="1.46267">
        <ele>1787.818</ele>
        <time>2012-07-19T13:43:44Z</time>
      </trkpt>
      <trkpt lat="42.822" lon="1.46272">
        <ele>1782.159</ele>
        <time>2012-07-19T13:44:45Z</time>
      </trkpt>
      <trkpt lat="42.82213" lon="1.46287">
        <ele>1777.562</ele>
        <time>2012-07-19T13:45:06Z</time>
      </trkpt>
      <trkpt lat="42.8223" lon="1.46288">
        <ele>1769.174</ele>
        <time>2012-07-19T13:45:39Z</time>
      </trkpt>
      <trkpt lat="42.82244" lon="1.463">
        <ele>1761.562</ele>
        <time>2012-07-19T13:46:05Z</time>
      </trkpt>
      <trkpt lat="42.82257" lon="1.46312">
        <ele>1754.309</ele>
        <time>2012-07-19T13:46:41Z</time>
      </trkpt>
      <trkpt lat="42.82273" lon="1.46321">
        <ele>1747.88</ele>
        <time>2012-07-19T13:47:09Z</time>
      </trkpt>
      <trkpt lat="42.82283" lon="1.46338">
        <ele>1742.663</ele>
        <time>2012-07-19T13:47:40Z</time>
      </trkpt>
      <trkpt lat="42.82286" lon="1.46347">
        <ele>1735.706</ele>
        <time>2012-07-19T13:55:14Z</time>
      </trkpt>
      <trkpt lat="42.82297" lon="1.46367">
        <ele>1730.593</ele>
        <time>2012-07-19T13:55:46Z</time>
      </trkpt>
      <trkpt lat="42.82302" lon="1.46391">
        <ele>1725.919</ele>
        <time>2012-07-19T13:56:10Z</time>
      </trkpt>
      <trkpt lat="42.82311" lon="1.4641">
        <ele>1723.272</ele>
        <time>2012-07-19T13:56:31Z</time>
      </trkpt>
      <trkpt lat="42.82323" lon="1.46428">
        <ele>1720.109</ele>
        <time>2012-07-19T13:56:52Z</time>
      </trkpt>
      <trkpt lat="42.82335" lon="1.46448">
        <ele>1717.687</ele>
        <time>2012-07-19T13:57:28Z</time>
      </trkpt>
      <trkpt lat="42.82347" lon="1.46466">
        <ele>1717.085</ele>
        <time>2012-07-19T13:57:51Z</time>
      </trkpt>
      <trkpt lat="42.82347" lon="1.46492">
        <ele>1717.995</ele>
        <time>2012-07-19T13:58:20Z</time>
      </trkpt>
      <trkpt lat="42.8235" lon="1.46517">
        <ele>1720.995</ele>
        <time>2012-07-19T13:58:41Z</time>
      </trkpt>
      <trkpt lat="42.8235" lon="1.46538">
        <ele>1723.491</ele>
        <time>2012-07-19T13:59:04Z</time>
      </trkpt>
      <trkpt lat="42.82351" lon="1.46563">
        <ele>1719.619</ele>
        <time>2012-07-19T13:59:28Z</time>
      </trkpt>
      <trkpt lat="42.82359" lon="1.46583">
        <ele>1714.776</ele>
        <time>2012-07-19T13:59:51Z</time>
      </trkpt>
      <trkpt lat="42.82374" lon="1.4659">
        <ele>1708.638</ele>
        <time>2012-07-19T14:00:19Z</time>
      </trkpt>
      <trkpt lat="42.82387" lon="1.46605">
        <ele>1701.554</ele>
        <time>2012-07-19T14:00:52Z</time>
      </trkpt>
      <trkpt lat="42.82395" lon="1.46626">
        <ele>1695.051</ele>
        <time>2012-07-19T14:01:21Z</time>
      </trkpt>
      <trkpt lat="42.824" lon="1.46637">
        <ele>1690.648</ele>
        <time>2012-07-19T14:04:01Z</time>
      </trkpt>
      <trkpt lat="42.8241" lon="1.46657">
        <ele>1689.048</ele>
        <time>2012-07-19T14:04:26Z</time>
      </trkpt>
      <trkpt lat="42.82419" lon="1.46669">
        <ele>1687.947</ele>
        <time>2012-07-19T14:04:47Z</time>
      </trkpt>
      <trkpt lat="42.82433" lon="1.46683">
        <ele>1685.828</ele>
        <time>2012-07-19T14:05:11Z</time>
      </trkpt>
      <trkpt lat="42.8245" lon="1.46691">
        <ele>1685.16</ele>
        <time>2012-07-19T14:05:33Z</time>
      </trkpt>
      <trkpt lat="42.82464" lon="1.46705">
        <ele>1684.708</ele>
        <time>2012-07-19T14:05:52Z</time>
      </trkpt>
      <trkpt lat="42.82481" lon="1.46724">
        <ele>1686.087</ele>
        <time>2012-07-19T14:06:18Z</time>
      </trkpt>
      <trkpt lat="42.82497" lon="1.46735">
        <ele>1682.313</ele>
        <time>2012-07-19T14:06:42Z</time>
      </trkpt>
      <trkpt lat="42.82512" lon="1.46752">
        <ele>1678.151</ele>
        <time>2012-07-19T14:07:06Z</time>
      </trkpt>
      <trkpt lat="42.82509" lon="1.46776">
        <ele>1674.288</ele>
        <time>2012-07-19T14:07:32Z</time>
      </trkpt>
      <trkpt lat="42.82524" lon="1.46776">
        <ele>1670.934</ele>
        <time>2012-07-19T14:07:54Z</time>
      </trkpt>
      <trkpt lat="42.82548" lon="1.46787">
        <ele>1665.167</ele>
        <time>2012-07-19T14:08:46Z</time>
      </trkpt>
      <trkpt lat="42.82559" lon="1.46805">
        <ele>1662.064</ele>
        <time>2012-07-19T14:09:13Z</time>
      </trkpt>
      <trkpt lat="42.8257" lon="1.46822">
        <ele>1658.941</ele>
        <time>2012-07-19T14:09:35Z</time>
      </trkpt>
      <trkpt lat="42.82585" lon="1.46837">
        <ele>1655.049</ele>
        <time>2012-07-19T14:10:00Z</time>
      </trkpt>
      <trkpt lat="42.82606" lon="1.46837">
        <ele>1651.209</ele>
        <time>2012-07-19T14:10:22Z</time>
      </trkpt>
      <trkpt lat="42.82621" lon="1.46852">
        <ele>1649.322</ele>
        <time>2012-07-19T14:10:44Z</time>
      </trkpt>
      <trkpt lat="42.82641" lon="1.46861">
        <ele>1645.772</ele>
        <time>2012-07-19T14:11:07Z</time>
      </trkpt>
      <trkpt lat="42.82654" lon="1.46869">
        <ele>1641.471</ele>
        <time>2012-07-19T14:11:32Z</time>
      </trkpt>
      <trkpt lat="42.82677" lon="1.46863">
        <ele>1635.384</ele>
        <time>2012-07-19T14:12:03Z</time>
      </trkpt>
      <trkpt lat="42.82694" lon="1.46874">
        <ele>1631.849</ele>
        <time>2012-07-19T14:12:23Z</time>
      </trkpt>
      <trkpt lat="42.82707" lon="1.46884">
        <ele>1629.434</ele>
        <time>2012-07-19T14:12:43Z</time>
      </trkpt>
      <trkpt lat="42.82719" lon="1.46888">
        <ele>1622.086</ele>
        <time>2012-07-19T14:13:09Z</time>
      </trkpt>
      <trkpt lat="42.82738" lon="1.46899">
        <ele>1615.375</ele>
        <time>2012-07-19T14:13:34Z</time>
      </trkpt>
      <trkpt lat="42.82751" lon="1.46914">
        <ele>1609.41</ele>
        <time>2012-07-19T14:13:56Z</time>
      </trkpt>
      <trkpt lat="42.82761" lon="1.46934">
        <ele>1605.598</ele>
        <time>2012-07-19T14:14:17Z</time>
      </trkpt>
      <trkpt lat="42.82773" lon="1.46957">
        <ele>1601.893</ele>
        <time>2012-07-19T14:14:37Z</time>
      </trkpt>
      <trkpt lat="42.82764" lon="1.46985">
        <ele>1601.921</ele>
        <time>2012-07-19T14:14:54Z</time>
      </trkpt>
      <trkpt lat="42.82758" lon="1.4701">
        <ele>1600.438</ele>
        <time>2012-07-19T14:15:09Z</time>
      </trkpt>
      <trkpt lat="42.82753" lon="1.47034">
        <ele>1599.579</ele>
        <time>2012-07-19T14:15:31Z</time>
      </trkpt>
      <trkpt lat="42.8275" lon="1.47059">
        <ele>1594.237</ele>
        <time>2012-07-19T14:16:10Z</time>
      </trkpt>
      <trkpt lat="42.82768" lon="1.47065">
        <ele>1592.877</ele>
        <time>2012-07-19T14:16:29Z</time>
      </trkpt>
      <trkpt lat="42.82779" lon="1.47083">
        <ele>1589.24</ele>
        <time>2012-07-19T14:16:50Z</time>
      </trkpt>
      <trkpt lat="42.8279" lon="1.47093">
        <ele>1585.809</ele>
        <time>2012-07-19T14:17:08Z</time>
      </trkpt>
      <trkpt lat="42.82805" lon="1.47101">
        <ele>1582.24</ele>
        <time>2012-07-19T14:17:25Z</time>
      </trkpt>
      <trkpt lat="42.82824" lon="1.47115">
        <ele>1578.516</ele>
        <time>2012-07-19T14:17:54Z</time>
      </trkpt>
      <trkpt lat="42.82836" lon="1.47126">
        <ele>1573.887</ele>
        <time>2012-07-19T14:18:13Z</time>
      </trkpt>
      <trkpt lat="42.82854" lon="1.47129">
        <ele>1569.576</ele>
        <time>2012-07-19T14:18:34Z</time>
      </trkpt>
      <trkpt lat="42.82865" lon="1.47144">
        <ele>1567.647</ele>
        <time>2012-07-19T14:18:49Z</time>
      </trkpt>
      <trkpt lat="42.82878" lon="1.4715">
        <ele>1563.882</ele>
        <time>2012-07-19T14:19:06Z</time>
      </trkpt>
      <trkpt lat="42.82882" lon="1.47156">
        <ele>1560.906</ele>
        <time>2012-07-19T14:19:20Z</time>
      </trkpt>
      <trkpt lat="42.82895" lon="1.47164">
        <ele>1555.838</ele>
        <time>2012-07-19T14:19:42Z</time>
      </trkpt>
      <trkpt lat="42.82896" lon="1.47172">
        <ele>1554.775</ele>
        <time>2012-07-19T14:23:04Z</time>
      </trkpt>
      <trkpt lat="42.82904" lon="1.47177">
        <ele>1548.534</ele>
        <time>2012-07-19T14:23:56Z</time>
      </trkpt>
      <trkpt lat="42.82905" lon="1.47176">
        <ele>1542.317</ele>
        <time>2012-07-19T14:24:24Z</time>
      </trkpt>
      <trkpt lat="42.8291" lon="1.47168">
        <ele>1537.32</ele>
        <time>2012-07-19T14:24:47Z</time>
      </trkpt>
      <trkpt lat="42.82923" lon="1.4717">
        <ele>1532.123</ele>
        <time>2012-07-19T14:25:07Z</time>
      </trkpt>
      <trkpt lat="42.8293" lon="1.4717">
        <ele>1526.846</ele>
        <time>2012-07-19T14:25:30Z</time>
      </trkpt>
      <trkpt lat="42.82935" lon="1.47165">
        <ele>1521.286</ele>
        <time>2012-07-19T14:25:51Z</time>
      </trkpt>
      <trkpt lat="42.82952" lon="1.47161">
        <ele>1514.469</ele>
        <time>2012-07-19T14:26:15Z</time>
      </trkpt>
      <trkpt lat="42.82961" lon="1.47155">
        <ele>1510.21</ele>
        <time>2012-07-19T14:26:34Z</time>
      </trkpt>
      <trkpt lat="42.82979" lon="1.47153">
        <ele>1505.985</ele>
        <time>2012-07-19T14:26:50Z</time>
      </trkpt>
      <trkpt lat="42.82988" lon="1.47145">
        <ele>1500.893</ele>
        <time>2012-07-19T14:27:09Z</time>
      </trkpt>
      <trkpt lat="42.82997" lon="1.47155">
        <ele>1497.313</ele>
        <time>2012-07-19T14:27:26Z</time>
      </trkpt>
      <trkpt lat="42.83015" lon="1.47155">
        <ele>1493.413</ele>
        <time>2012-07-19T14:27:44Z</time>
      </trkpt>
      <trkpt lat="42.83031" lon="1.47147">
        <ele>1488.981</ele>
        <time>2012-07-19T14:28:02Z</time>
      </trkpt>
      <trkpt lat="42.8304" lon="1.47142">
        <ele>1485.882</ele>
        <time>2012-07-19T14:28:12Z</time>
      </trkpt>
      <trkpt lat="42.83054" lon="1.47147">
        <ele>1482.756</ele>
        <time>2012-07-19T14:28:25Z</time>
      </trkpt>
      <trkpt lat="42.83058" lon="1.47156">
        <ele>1479.318</ele>
        <time>2012-07-19T14:28:39Z</time>
      </trkpt>
      <trkpt lat="42.83064" lon="1.47166">
        <ele>1476.282</ele>
        <time>2012-07-19T14:28:51Z</time>
      </trkpt>
      <trkpt lat="42.83067" lon="1.47168">
        <ele>1472.903</ele>
        <time>2012-07-19T14:29:04Z</time>
      </trkpt>
      <trkpt lat="42.83063" lon="1.47165">
        <ele>1471.55</ele>
        <time>2012-07-19T14:29:24Z</time>
      </trkpt>
      <trkpt lat="42.83089" lon="1.47152">
        <ele>1471.727</ele>
        <time>2012-07-19T14:30:47Z</time>
      </trkpt>
      <trkpt lat="42.83048" lon="1.47138">
        <ele>1462.643</ele>
        <time>2012-07-19T14:31:40Z</time>
      </trkpt>
      <trkpt lat="42.83048" lon="1.4711">
        <ele>1458.753</ele>
        <time>2012-07-19T14:31:59Z</time>
      </trkpt>
      <trkpt lat="42.83056" lon="1.47095">
        <ele>1457.097</ele>
        <time>2012-07-19T14:32:13Z</time>
      </trkpt>
      <trkpt lat="42.8305" lon="1.47073">
        <ele>1453.516</ele>
        <time>2012-07-19T14:32:30Z</time>
      </trkpt>
      <trkpt lat="42.83051" lon="1.4706">
        <ele>1451.093</ele>
        <time>2012-07-19T14:32:45Z</time>
      </trkpt>
      <trkpt lat="42.83029" lon="1.47049">
        <ele>1445.322</ele>
        <time>2012-07-19T14:33:12Z</time>
      </trkpt>
      <trkpt lat="42.83037" lon="1.4703">
        <ele>1441.406</ele>
        <time>2012-07-19T14:33:33Z</time>
      </trkpt>
      <trkpt lat="42.83042" lon="1.47027">
        <ele>1437.44</ele>
        <time>2012-07-19T14:33:50Z</time>
      </trkpt>
      <trkpt lat="42.83048" lon="1.47027">
        <ele>1433.731</ele>
        <time>2012-07-19T14:34:07Z</time>
      </trkpt>
      <trkpt lat="42.83059" lon="1.47021">
        <ele>1426.757</ele>
        <time>2012-07-19T14:34:31Z</time>
      </trkpt>
      <trkpt lat="42.83072" lon="1.47019">
        <ele>1422.765</ele>
        <time>2012-07-19T14:34:46Z</time>
      </trkpt>
      <trkpt lat="42.8309" lon="1.47022">
        <ele>1419.417</ele>
        <time>2012-07-19T14:34:59Z</time>
      </trkpt>
      <trkpt lat="42.83084" lon="1.47036">
        <ele>1415.728</ele>
        <time>2012-07-19T14:35:14Z</time>
      </trkpt>
      <trkpt lat="42.83095" lon="1.4702">
        <ele>1411.514</ele>
        <time>2012-07-19T14:35:31Z</time>
      </trkpt>
      <trkpt lat="42.83108" lon="1.47006">
        <ele>1408.097</ele>
        <time>2012-07-19T14:35:45Z</time>
      </trkpt>
      <trkpt lat="42.83117" lon="1.46991">
        <ele>1405.156</ele>
        <time>2012-07-19T14:35:58Z</time>
      </trkpt>
      <trkpt lat="42.83124" lon="1.46983">
        <ele>1402.276</ele>
        <time>2012-07-19T14:36:12Z</time>
      </trkpt>
      <trkpt lat="42.83136" lon="1.4698">
        <ele>1398.543</ele>
        <time>2012-07-19T14:36:27Z</time>
      </trkpt>
      <trkpt lat="42.83149" lon="1.46982">
        <ele>1395.335</ele>
        <time>2012-07-19T14:36:39Z</time>
      </trkpt>
      <trkpt lat="42.83161" lon="1.46983">
        <ele>1392.209</ele>
        <time>2012-07-19T14:36:51Z</time>
      </trkpt>
      <trkpt lat="42.83177" lon="1.46966">
        <ele>1389.26</ele>
        <time>2012-07-19T14:37:03Z</time>
      </trkpt>
      <trkpt lat="42.83175" lon="1.4697">
        <ele>1387.723</ele>
        <time>2012-07-19T14:37:14Z</time>
      </trkpt>
      <trkpt lat="42.83165" lon="1.4695">
        <ele>1381.875</ele>
        <time>2012-07-19T14:38:37Z</time>
      </trkpt>
      <trkpt lat="42.83162" lon="1.46952">
        <ele>1373.147</ele>
        <time>2012-07-19T14:39:13Z</time>
      </trkpt>
      <trkpt lat="42.83173" lon="1.46952">
        <ele>1364.573</ele>
        <time>2012-07-19T14:39:49Z</time>
      </trkpt>
      <trkpt lat="42.83193" lon="1.46951">
        <ele>1358.353</ele>
        <time>2012-07-19T14:40:13Z</time>
      </trkpt>
      <trkpt lat="42.83199" lon="1.46953">
        <ele>1349.731</ele>
        <time>2012-07-19T14:40:50Z</time>
      </trkpt>
      <trkpt lat="42.83217" lon="1.46961">
        <ele>1343.614</ele>
        <time>2012-07-19T14:41:21Z</time>
      </trkpt>
      <trkpt lat="42.83235" lon="1.46958">
        <ele>1338.784</ele>
        <time>2012-07-19T14:41:40Z</time>
      </trkpt>
      <trkpt lat="42.83238" lon="1.46966">
        <ele>1333.719</ele>
        <time>2012-07-19T14:42:03Z</time>
      </trkpt>
      <trkpt lat="42.83253" lon="1.46991">
        <ele>1327.269</ele>
        <time>2012-07-19T14:42:44Z</time>
      </trkpt>
      <trkpt lat="42.83268" lon="1.46995">
        <ele>1322.27</ele>
        <time>2012-07-19T14:43:07Z</time>
      </trkpt>
      <trkpt lat="42.83282" lon="1.47003">
        <ele>1314.565</ele>
        <time>2012-07-19T14:43:42Z</time>
      </trkpt>
      <trkpt lat="42.833" lon="1.47011">
        <ele>1310.617</ele>
        <time>2012-07-19T14:44:11Z</time>
      </trkpt>
      <trkpt lat="42.83312" lon="1.47032">
        <ele>1305.641</ele>
        <time>2012-07-19T14:44:52Z</time>
      </trkpt>
      <trkpt lat="42.83332" lon="1.47052">
        <ele>1298.65</ele>
        <time>2012-07-19T14:45:33Z</time>
      </trkpt>
      <trkpt lat="42.8335" lon="1.47056">
        <ele>1295.788</ele>
        <time>2012-07-19T14:45:53Z</time>
      </trkpt>
      <trkpt lat="42.83372" lon="1.47068">
        <ele>1292.171</ele>
        <time>2012-07-19T14:46:19Z</time>
      </trkpt>
      <trkpt lat="42.83395" lon="1.4708">
        <ele>1286.144</ele>
        <time>2012-07-19T14:46:49Z</time>
      </trkpt>
      <trkpt lat="42.83403" lon="1.47098">
        <ele>1281.903</ele>
        <time>2012-07-19T14:47:15Z</time>
      </trkpt>
      <trkpt lat="42.83448" lon="1.47103">
        <ele>1275.355</ele>
        <time>2012-07-19T14:48:07Z</time>
      </trkpt>
      <trkpt lat="42.83465" lon="1.47127">
        <ele>1273.487</ele>
        <time>2012-07-19T14:48:25Z</time>
      </trkpt>
      <trkpt lat="42.83476" lon="1.47139">
        <ele>1269.857</ele>
        <time>2012-07-19T14:48:45Z</time>
      </trkpt>
      <trkpt lat="42.83482" lon="1.47156">
        <ele>1263.473</ele>
        <time>2012-07-19T14:49:20Z</time>
      </trkpt>
      <trkpt lat="42.83506" lon="1.47166">
        <ele>1261.147</ele>
        <time>2012-07-19T14:49:41Z</time>
      </trkpt>
      <trkpt lat="42.83514" lon="1.47187">
        <ele>1258.368</ele>
        <time>2012-07-19T14:50:01Z</time>
      </trkpt>
      <trkpt lat="42.8354" lon="1.47201">
        <ele>1254.955</ele>
        <time>2012-07-19T14:50:49Z</time>
      </trkpt>
      <trkpt lat="42.83562" lon="1.47201">
        <ele>1249.918</ele>
        <time>2012-07-19T14:51:29Z</time>
      </trkpt>
      <trkpt lat="42.83587" lon="1.47209">
        <ele>1245.201</ele>
        <time>2012-07-19T14:51:56Z</time>
      </trkpt>
      <trkpt lat="42.83582" lon="1.47243">
        <ele>1241.041</ele>
        <time>2012-07-19T14:52:39Z</time>
      </trkpt>
      <trkpt lat="42.83581" lon="1.47274">
        <ele>1238.811</ele>
        <time>2012-07-19T14:53:21Z</time>
      </trkpt>
      <trkpt lat="42.83608" lon="1.47293">
        <ele>1231.269</ele>
        <time>2012-07-19T14:54:02Z</time>
      </trkpt>
      <trkpt lat="42.83619" lon="1.47315">
        <ele>1227.596</ele>
        <time>2012-07-19T14:54:23Z</time>
      </trkpt>
      <trkpt lat="42.83601" lon="1.47344">
        <ele>1220.85</ele>
        <time>2012-07-19T14:54:57Z</time>
      </trkpt>
      <trkpt lat="42.8362" lon="1.4739">
        <ele>1212.437</ele>
        <time>2012-07-19T14:55:42Z</time>
      </trkpt>
      <trkpt lat="42.8366" lon="1.47467">
        <ele>1204.278</ele>
        <time>2012-07-19T14:57:15Z</time>
      </trkpt>
      <trkpt lat="42.83663" lon="1.47503">
        <ele>1201.109</ele>
        <time>2012-07-19T14:57:37Z</time>
      </trkpt>
      <trkpt lat="42.83658" lon="1.47531">
        <ele>1199.121</ele>
        <time>2012-07-19T14:57:54Z</time>
      </trkpt>
      <trkpt lat="42.83663" lon="1.47555">
        <ele>1197.908</ele>
        <time>2012-07-19T14:58:12Z</time>
      </trkpt>
      <trkpt lat="42.83672" lon="1.47579">
        <ele>1195.118</ele>
        <time>2012-07-19T14:58:32Z</time>
      </trkpt>
      <trkpt lat="42.83682" lon="1.47617">
        <ele>1190.832</ele>
        <time>2012-07-19T14:59:05Z</time>
      </trkpt>
      <trkpt lat="42.83699" lon="1.47661">
        <ele>1181.611</ele>
        <time>2012-07-19T14:59:43Z</time>
      </trkpt>
      <trkpt lat="42.83716" lon="1.47693">
        <ele>1175.455</ele>
        <time>2012-07-19T15:00:07Z</time>
      </trkpt>
      <trkpt lat="42.83725" lon="1.47721">
        <ele>1170.772</ele>
        <time>2012-07-19T15:00:25Z</time>
      </trkpt>
      <trkpt lat="42.83732" lon="1.47755">
        <ele>1164.502</ele>
        <time>2012-07-19T15:00:49Z</time>
      </trkpt>
      <trkpt lat="42.8374" lon="1.47782">
        <ele>1159.585</ele>
        <time>2012-07-19T15:01:12Z</time>
      </trkpt>
      <trkpt lat="42.8375" lon="1.47811">
        <ele>1152.543</ele>
        <time>2012-07-19T15:01:39Z</time>
      </trkpt>
      <trkpt lat="42.83767" lon="1.47837">
        <ele>1148.074</ele>
        <time>2012-07-19T15:02:03Z</time>
      </trkpt>
      <trkpt lat="42.83771" lon="1.4787">
        <ele>1145.576</ele>
        <time>2012-07-19T15:02:21Z</time>
      </trkpt>
      <trkpt lat="42.83769" lon="1.47901">
        <ele>1140.347</ele>
        <time>2012-07-19T15:02:47Z</time>
      </trkpt>
      <trkpt lat="42.8378" lon="1.47927">
        <ele>1141.061</ele>
        <time>2012-07-19T15:04:05Z</time>
      </trkpt>
      <trkpt lat="42.83787" lon="1.47909">
        <ele>1139.587</ele>
        <time>2012-07-19T15:04:56Z</time>
      </trkpt>
      <trkpt lat="42.83789" lon="1.47879">
        <ele>1136.566</ele>
        <time>2012-07-19T15:05:17Z</time>
      </trkpt>
      <trkpt lat="42.83799" lon="1.47857">
        <ele>1134.059</ele>
        <time>2012-07-19T15:05:37Z</time>
      </trkpt>
      <trkpt lat="42.83803" lon="1.4783">
        <ele>1131.305</ele>
        <time>2012-07-19T15:05:58Z</time>
      </trkpt>
      <trkpt lat="42.838" lon="1.47792">
        <ele>1127.342</ele>
        <time>2012-07-19T15:06:30Z</time>
      </trkpt>
      <trkpt lat="42.83809" lon="1.47766">
        <ele>1124.737</ele>
        <time>2012-07-19T15:06:50Z</time>
      </trkpt>
      <trkpt lat="42.83804" lon="1.47728">
        <ele>1121.463</ele>
        <time>2012-07-19T15:07:15Z</time>
      </trkpt>
      <trkpt lat="42.83801" lon="1.47691">
        <ele>1118.495</ele>
        <time>2012-07-19T15:07:38Z</time>
      </trkpt>
      <trkpt lat="42.83802" lon="1.47652">
        <ele>1115.747</ele>
        <time>2012-07-19T15:08:04Z</time>
      </trkpt>
      <trkpt lat="42.8381" lon="1.4762">
        <ele>1113.079</ele>
        <time>2012-07-19T15:08:24Z</time>
      </trkpt>
      <trkpt lat="42.83808" lon="1.47589">
        <ele>1110.653</ele>
        <time>2012-07-19T15:08:44Z</time>
      </trkpt>
      <trkpt lat="42.83805" lon="1.47559">
        <ele>1106.79</ele>
        <time>2012-07-19T15:09:14Z</time>
      </trkpt>
      <trkpt lat="42.83802" lon="1.47518">
        <ele>1102.98</ele>
        <time>2012-07-19T15:09:45Z</time>
      </trkpt>
      <trkpt lat="42.83803" lon="1.47479">
        <ele>1101.22</ele>
        <time>2012-07-19T15:10:12Z</time>
      </trkpt>
      <trkpt lat="42.83814" lon="1.47463">
        <ele>1099.769</ele>
        <time>2012-07-19T15:10:31Z</time>
      </trkpt>
      <trkpt lat="42.83828" lon="1.47479">
        <ele>1097.618</ele>
        <time>2012-07-19T15:10:50Z</time>
      </trkpt>
      <trkpt lat="42.83842" lon="1.47509">
        <ele>1096.038</ele>
        <time>2012-07-19T15:11:11Z</time>
      </trkpt>
      <trkpt lat="42.83856" lon="1.47534">
        <ele>1094.218</ele>
        <time>2012-07-19T15:11:39Z</time>
      </trkpt>
      <trkpt lat="42.83884" lon="1.4754">
        <ele>1097.011</ele>
        <time>2012-07-19T15:12:04Z</time>
      </trkpt>
      <trkpt lat="42.83888" lon="1.47577">
        <ele>1091.826</ele>
        <time>2012-07-19T15:12:41Z</time>
      </trkpt>
      <trkpt lat="42.83902" lon="1.47607">
        <ele>1091.235</ele>
        <time>2012-07-19T15:13:07Z</time>
      </trkpt>
      <trkpt lat="42.83904" lon="1.47643">
        <ele>1091.232</ele>
        <time>2012-07-19T15:13:31Z</time>
      </trkpt>
      <trkpt lat="42.8391" lon="1.47671">
        <ele>1091.668</ele>
        <time>2012-07-19T15:13:50Z</time>
      </trkpt>
      <trkpt lat="42.83907" lon="1.4771">
        <ele>1092.054</ele>
        <time>2012-07-19T15:14:11Z</time>
      </trkpt>
      <trkpt lat="42.83897" lon="1.47733">
        <ele>1091.673</ele>
        <time>2012-07-19T15:14:27Z</time>
      </trkpt>
      <trkpt lat="42.83893" lon="1.47763">
        <ele>1090.873</ele>
        <time>2012-07-19T15:14:50Z</time>
      </trkpt>
      <trkpt lat="42.83899" lon="1.47797">
        <ele>1090.088</ele>
        <time>2012-07-19T15:15:10Z</time>
      </trkpt>
      <trkpt lat="42.83906" lon="1.47826">
        <ele>1088.566</ele>
        <time>2012-07-19T15:15:29Z</time>
      </trkpt>
      <trkpt lat="42.83915" lon="1.47853">
        <ele>1086.753</ele>
        <time>2012-07-19T15:15:47Z</time>
      </trkpt>
      <trkpt lat="42.83923" lon="1.47877">
        <ele>1084.399</ele>
        <time>2012-07-19T15:16:06Z</time>
      </trkpt>
      <trkpt lat="42.83931" lon="1.47902">
        <ele>1081.939</ele>
        <time>2012-07-19T15:16:26Z</time>
      </trkpt>
      <trkpt lat="42.83939" lon="1.47928">
        <ele>1079.466</ele>
        <time>2012-07-19T15:16:45Z</time>
      </trkpt>
      <trkpt lat="42.8394" lon="1.4796">
        <ele>1075.835</ele>
        <time>2012-07-19T15:17:10Z</time>
      </trkpt>
      <trkpt lat="42.83945" lon="1.48002">
        <ele>1073.227</ele>
        <time>2012-07-19T15:17:36Z</time>
      </trkpt>
      <trkpt lat="42.83955" lon="1.48038">
        <ele>1072.218</ele>
        <time>2012-07-19T15:17:57Z</time>
      </trkpt>
      <trkpt lat="42.83951" lon="1.48068">
        <ele>1071.19</ele>
        <time>2012-07-19T15:18:16Z</time>
      </trkpt>
      <trkpt lat="42.83955" lon="1.48098">
        <ele>1069.916</ele>
        <time>2012-07-19T15:18:35Z</time>
      </trkpt>
      <trkpt lat="42.83953" lon="1.4813">
        <ele>1068.014</ele>
        <time>2012-07-19T15:18:56Z</time>
      </trkpt>
      <trkpt lat="42.8396" lon="1.48159">
        <ele>1066.878</ele>
        <time>2012-07-19T15:19:13Z</time>
      </trkpt>
      <trkpt lat="42.83966" lon="1.48185">
        <ele>1066.04</ele>
        <time>2012-07-19T15:19:31Z</time>
      </trkpt>
      <trkpt lat="42.83974" lon="1.48213">
        <ele>1065.335</ele>
        <time>2012-07-19T15:19:51Z</time>
      </trkpt>
      <trkpt lat="42.83961" lon="1.48241">
        <ele>1064.558</ele>
        <time>2012-07-19T15:20:12Z</time>
      </trkpt>
      <trkpt lat="42.83947" lon="1.48262">
        <ele>1064.943</ele>
        <time>2012-07-19T15:20:30Z</time>
      </trkpt>
      <trkpt lat="42.8394" lon="1.48282">
        <ele>1064.357</ele>
        <time>2012-07-19T15:20:53Z</time>
      </trkpt>
      <trkpt lat="42.83949" lon="1.48312">
        <ele>1063.403</ele>
        <time>2012-07-19T15:21:17Z</time>
      </trkpt>
      <trkpt lat="42.83955" lon="1.48349">
        <ele>1061.918</ele>
        <time>2012-07-19T15:21:42Z</time>
      </trkpt>
      <trkpt lat="42.83966" lon="1.48396">
        <ele>1060.37</ele>
        <time>2012-07-19T15:22:07Z</time>
      </trkpt>
      <trkpt lat="42.83971" lon="1.48413">
        <ele>1058.663</ele>
        <time>2012-07-19T15:22:29Z</time>
      </trkpt>
      <trkpt lat="42.83977" lon="1.48443">
        <ele>1056.377</ele>
        <time>2012-07-19T15:22:51Z</time>
      </trkpt>
      <trkpt lat="42.8397" lon="1.4848">
        <ele>1051.444</ele>
        <time>2012-07-19T15:23:14Z</time>
      </trkpt>
      <trkpt lat="42.84039" lon="1.48549">
        <ele>1050.07</ele>
        <time>2012-07-19T15:24:25Z</time>
      </trkpt>
      <trkpt lat="42.84035" lon="1.48553">
        <ele>1051.602</ele>
        <time>2012-07-19T15:24:39Z</time>
      </trkpt>
    </trkseg>
  </trk>
</gpx>